<?xml version="1.0" encoding="UTF-8" standalone="no" ?>
<gpx xmlns="http://www.topografix.com/GPX/1/1" xmlns:xsi="http://www.w3.org/2001/XMLSchema-instance" xsi:schemaLocation="http://www.topografix.com/GPX/1/1 http://www.topografix.com/GPX/1/1/gpx.xsd" version="1.1" creator="VisuGPX - https://www.visugpx.com">
  <metadata>
    <name>Rando Deluz le 16 avril 2015</name>
    <desc><![CDATA[Les Balcons du Doubs à Deluz]]></desc>
  </metadata>
  <trk>
    <name><![CDATA[Deluz 16 avr. 2015 17 km]]></name>
    <cmt><![CDATA[16 avr. 2015 09:09:07]]></cmt>
    <trkseg>
      <trkpt lat="47.29592" lon="6.19415">
        <ele>313</ele>
        <time>2015-04-16T07:09:08Z</time>
      </trkpt>
      <trkpt lat="47.29595" lon="6.19412">
        <ele>309</ele>
        <time>2015-04-16T07:10:09Z</time>
      </trkpt>
      <trkpt lat="47.29594" lon="6.19405">
        <ele>309</ele>
        <time>2015-04-16T07:10:14Z</time>
      </trkpt>
      <trkpt lat="47.2959" lon="6.19401">
        <ele>310</ele>
        <time>2015-04-16T07:10:22Z</time>
      </trkpt>
      <trkpt lat="47.29588" lon="6.19388">
        <ele>312</ele>
        <time>2015-04-16T07:10:32Z</time>
      </trkpt>
      <trkpt lat="47.29593" lon="6.19376">
        <ele>312</ele>
        <time>2015-04-16T07:10:42Z</time>
      </trkpt>
      <trkpt lat="47.29587" lon="6.19381">
        <ele>314</ele>
        <time>2015-04-16T07:11:27Z</time>
      </trkpt>
      <trkpt lat="47.29587" lon="6.19409">
        <ele>314</ele>
        <time>2015-04-16T07:11:47Z</time>
      </trkpt>
      <trkpt lat="47.29588" lon="6.19412">
        <ele>314</ele>
        <time>2015-04-16T07:11:53Z</time>
      </trkpt>
      <trkpt lat="47.2959" lon="6.1942">
        <ele>315</ele>
        <time>2015-04-16T07:12:02Z</time>
      </trkpt>
      <trkpt lat="47.29588" lon="6.19417">
        <ele>312</ele>
        <time>2015-04-16T07:16:24Z</time>
      </trkpt>
      <trkpt lat="47.29578" lon="6.1941">
        <ele>311</ele>
        <time>2015-04-16T07:16:32Z</time>
      </trkpt>
      <trkpt lat="47.29573" lon="6.19407">
        <ele>310</ele>
        <time>2015-04-16T07:16:37Z</time>
      </trkpt>
      <trkpt lat="47.29563" lon="6.19404">
        <ele>310</ele>
        <time>2015-04-16T07:16:45Z</time>
      </trkpt>
      <trkpt lat="47.29543" lon="6.19404">
        <ele>311</ele>
        <time>2015-04-16T07:16:59Z</time>
      </trkpt>
      <trkpt lat="47.29534" lon="6.19414">
        <ele>311</ele>
        <time>2015-04-16T07:17:10Z</time>
      </trkpt>
      <trkpt lat="47.2953" lon="6.19418">
        <ele>311</ele>
        <time>2015-04-16T07:17:16Z</time>
      </trkpt>
      <trkpt lat="47.29521" lon="6.19422">
        <ele>311</ele>
        <time>2015-04-16T07:17:24Z</time>
      </trkpt>
      <trkpt lat="47.29504" lon="6.19435">
        <ele>312</ele>
        <time>2015-04-16T07:17:41Z</time>
      </trkpt>
      <trkpt lat="47.29487" lon="6.19447">
        <ele>311</ele>
        <time>2015-04-16T07:17:59Z</time>
      </trkpt>
      <trkpt lat="47.29481" lon="6.19457">
        <ele>312</ele>
        <time>2015-04-16T07:18:12Z</time>
      </trkpt>
      <trkpt lat="47.29449" lon="6.19487">
        <ele>317</ele>
        <time>2015-04-16T07:18:51Z</time>
      </trkpt>
      <trkpt lat="47.2944" lon="6.19482">
        <ele>319</ele>
        <time>2015-04-16T07:19:11Z</time>
      </trkpt>
      <trkpt lat="47.29439" lon="6.19468">
        <ele>320</ele>
        <time>2015-04-16T07:19:25Z</time>
      </trkpt>
      <trkpt lat="47.29444" lon="6.19428">
        <ele>329</ele>
        <time>2015-04-16T07:19:58Z</time>
      </trkpt>
      <trkpt lat="47.29446" lon="6.19424">
        <ele>337</ele>
        <time>2015-04-16T07:21:43Z</time>
      </trkpt>
      <trkpt lat="47.29445" lon="6.19425">
        <ele>337</ele>
        <time>2015-04-16T07:22:01Z</time>
      </trkpt>
      <trkpt lat="47.29451" lon="6.19414">
        <ele>337</ele>
        <time>2015-04-16T07:22:20Z</time>
      </trkpt>
      <trkpt lat="47.29448" lon="6.19413">
        <ele>336</ele>
        <time>2015-04-16T07:22:53Z</time>
      </trkpt>
      <trkpt lat="47.29448" lon="6.19419">
        <ele>340</ele>
        <time>2015-04-16T07:25:35Z</time>
      </trkpt>
      <trkpt lat="47.29449" lon="6.19422">
        <ele>339</ele>
        <time>2015-04-16T07:25:46Z</time>
      </trkpt>
      <trkpt lat="47.29451" lon="6.19425">
        <ele>339</ele>
        <time>2015-04-16T07:25:53Z</time>
      </trkpt>
      <trkpt lat="47.2945" lon="6.19421">
        <ele>337</ele>
        <time>2015-04-16T07:26:47Z</time>
      </trkpt>
      <trkpt lat="47.29453" lon="6.19416">
        <ele>335</ele>
        <time>2015-04-16T07:27:13Z</time>
      </trkpt>
      <trkpt lat="47.29457" lon="6.19419">
        <ele>336</ele>
        <time>2015-04-16T07:27:19Z</time>
      </trkpt>
      <trkpt lat="47.29461" lon="6.19414">
        <ele>335</ele>
        <time>2015-04-16T07:27:24Z</time>
      </trkpt>
      <trkpt lat="47.2949" lon="6.1938">
        <ele>331</ele>
        <time>2015-04-16T07:27:55Z</time>
      </trkpt>
      <trkpt lat="47.29494" lon="6.19376">
        <ele>330</ele>
        <time>2015-04-16T07:27:58Z</time>
      </trkpt>
      <trkpt lat="47.29509" lon="6.19367">
        <ele>329</ele>
        <time>2015-04-16T07:28:08Z</time>
      </trkpt>
      <trkpt lat="47.29514" lon="6.19365">
        <ele>329</ele>
        <time>2015-04-16T07:28:12Z</time>
      </trkpt>
      <trkpt lat="47.29529" lon="6.1936">
        <ele>330</ele>
        <time>2015-04-16T07:28:22Z</time>
      </trkpt>
      <trkpt lat="47.29534" lon="6.19358">
        <ele>330</ele>
        <time>2015-04-16T07:28:27Z</time>
      </trkpt>
      <trkpt lat="47.29566" lon="6.19339">
        <ele>325</ele>
        <time>2015-04-16T07:28:58Z</time>
      </trkpt>
      <trkpt lat="47.2957" lon="6.19335">
        <ele>324</ele>
        <time>2015-04-16T07:29:03Z</time>
      </trkpt>
      <trkpt lat="47.29581" lon="6.19334">
        <ele>324</ele>
        <time>2015-04-16T07:29:13Z</time>
      </trkpt>
      <trkpt lat="47.2959" lon="6.19339">
        <ele>323</ele>
        <time>2015-04-16T07:29:23Z</time>
      </trkpt>
      <trkpt lat="47.29595" lon="6.19343">
        <ele>323</ele>
        <time>2015-04-16T07:29:28Z</time>
      </trkpt>
      <trkpt lat="47.29605" lon="6.1936">
        <ele>321</ele>
        <time>2015-04-16T07:29:42Z</time>
      </trkpt>
      <trkpt lat="47.2961" lon="6.19362">
        <ele>319</ele>
        <time>2015-04-16T07:29:47Z</time>
      </trkpt>
      <trkpt lat="47.29611" lon="6.19366">
        <ele>319</ele>
        <time>2015-04-16T07:29:49Z</time>
      </trkpt>
      <trkpt lat="47.29613" lon="6.19377">
        <ele>317</ele>
        <time>2015-04-16T07:29:55Z</time>
      </trkpt>
      <trkpt lat="47.29615" lon="6.19388">
        <ele>318</ele>
        <time>2015-04-16T07:29:59Z</time>
      </trkpt>
      <trkpt lat="47.2963" lon="6.19413">
        <ele>313</ele>
        <time>2015-04-16T07:30:25Z</time>
      </trkpt>
      <trkpt lat="47.29634" lon="6.19417">
        <ele>313</ele>
        <time>2015-04-16T07:30:30Z</time>
      </trkpt>
      <trkpt lat="47.29656" lon="6.19429">
        <ele>313</ele>
        <time>2015-04-16T07:30:52Z</time>
      </trkpt>
      <trkpt lat="47.29682" lon="6.19452">
        <ele>316</ele>
        <time>2015-04-16T07:31:23Z</time>
      </trkpt>
      <trkpt lat="47.29688" lon="6.19442">
        <ele>317</ele>
        <time>2015-04-16T07:31:41Z</time>
      </trkpt>
      <trkpt lat="47.29687" lon="6.19429">
        <ele>318</ele>
        <time>2015-04-16T07:31:50Z</time>
      </trkpt>
      <trkpt lat="47.2968" lon="6.19371">
        <ele>324</ele>
        <time>2015-04-16T07:32:27Z</time>
      </trkpt>
      <trkpt lat="47.29679" lon="6.19358">
        <ele>325</ele>
        <time>2015-04-16T07:32:35Z</time>
      </trkpt>
      <trkpt lat="47.2967" lon="6.19306">
        <ele>334</ele>
        <time>2015-04-16T07:33:08Z</time>
      </trkpt>
      <trkpt lat="47.29667" lon="6.193">
        <ele>334</ele>
        <time>2015-04-16T07:33:14Z</time>
      </trkpt>
      <trkpt lat="47.29667" lon="6.19286">
        <ele>334</ele>
        <time>2015-04-16T07:33:20Z</time>
      </trkpt>
      <trkpt lat="47.29666" lon="6.1928">
        <ele>334</ele>
        <time>2015-04-16T07:33:23Z</time>
      </trkpt>
      <trkpt lat="47.29662" lon="6.19274">
        <ele>334</ele>
        <time>2015-04-16T07:33:32Z</time>
      </trkpt>
      <trkpt lat="47.29661" lon="6.19267">
        <ele>334</ele>
        <time>2015-04-16T07:33:37Z</time>
      </trkpt>
      <trkpt lat="47.2966" lon="6.19259">
        <ele>334</ele>
        <time>2015-04-16T07:33:41Z</time>
      </trkpt>
      <trkpt lat="47.29661" lon="6.19245">
        <ele>335</ele>
        <time>2015-04-16T07:33:49Z</time>
      </trkpt>
      <trkpt lat="47.29661" lon="6.19237">
        <ele>335</ele>
        <time>2015-04-16T07:33:53Z</time>
      </trkpt>
      <trkpt lat="47.29661" lon="6.19229">
        <ele>336</ele>
        <time>2015-04-16T07:33:57Z</time>
      </trkpt>
      <trkpt lat="47.2966" lon="6.19222">
        <ele>337</ele>
        <time>2015-04-16T07:34:02Z</time>
      </trkpt>
      <trkpt lat="47.29659" lon="6.19215">
        <ele>337</ele>
        <time>2015-04-16T07:34:06Z</time>
      </trkpt>
      <trkpt lat="47.29658" lon="6.19192">
        <ele>335</ele>
        <time>2015-04-16T07:34:20Z</time>
      </trkpt>
      <trkpt lat="47.29659" lon="6.19184">
        <ele>335</ele>
        <time>2015-04-16T07:34:25Z</time>
      </trkpt>
      <trkpt lat="47.29662" lon="6.19178">
        <ele>335</ele>
        <time>2015-04-16T07:34:30Z</time>
      </trkpt>
      <trkpt lat="47.29663" lon="6.1917">
        <ele>335</ele>
        <time>2015-04-16T07:34:35Z</time>
      </trkpt>
      <trkpt lat="47.29669" lon="6.19137">
        <ele>335</ele>
        <time>2015-04-16T07:35:01Z</time>
      </trkpt>
      <trkpt lat="47.29674" lon="6.19134">
        <ele>336</ele>
        <time>2015-04-16T07:35:09Z</time>
      </trkpt>
      <trkpt lat="47.29679" lon="6.19137">
        <ele>337</ele>
        <time>2015-04-16T07:35:14Z</time>
      </trkpt>
      <trkpt lat="47.29687" lon="6.19146">
        <ele>339</ele>
        <time>2015-04-16T07:35:28Z</time>
      </trkpt>
      <trkpt lat="47.29691" lon="6.1915">
        <ele>340</ele>
        <time>2015-04-16T07:35:32Z</time>
      </trkpt>
      <trkpt lat="47.29706" lon="6.19152">
        <ele>341</ele>
        <time>2015-04-16T07:35:45Z</time>
      </trkpt>
      <trkpt lat="47.29725" lon="6.19147">
        <ele>345</ele>
        <time>2015-04-16T07:36:10Z</time>
      </trkpt>
      <trkpt lat="47.29743" lon="6.19156">
        <ele>346</ele>
        <time>2015-04-16T07:36:33Z</time>
      </trkpt>
      <trkpt lat="47.29751" lon="6.19163">
        <ele>346</ele>
        <time>2015-04-16T07:36:44Z</time>
      </trkpt>
      <trkpt lat="47.29774" lon="6.19186">
        <ele>348</ele>
        <time>2015-04-16T07:37:15Z</time>
      </trkpt>
      <trkpt lat="47.29789" lon="6.19202">
        <ele>352</ele>
        <time>2015-04-16T07:37:37Z</time>
      </trkpt>
      <trkpt lat="47.29794" lon="6.19214">
        <ele>353</ele>
        <time>2015-04-16T07:37:50Z</time>
      </trkpt>
      <trkpt lat="47.29829" lon="6.1924">
        <ele>357</ele>
        <time>2015-04-16T07:38:26Z</time>
      </trkpt>
      <trkpt lat="47.29849" lon="6.19268">
        <ele>365</ele>
        <time>2015-04-16T07:39:00Z</time>
      </trkpt>
      <trkpt lat="47.29882" lon="6.19292">
        <ele>371</ele>
        <time>2015-04-16T07:39:37Z</time>
      </trkpt>
      <trkpt lat="47.29897" lon="6.1931">
        <ele>373</ele>
        <time>2015-04-16T07:40:01Z</time>
      </trkpt>
      <trkpt lat="47.29903" lon="6.1932">
        <ele>376</ele>
        <time>2015-04-16T07:40:14Z</time>
      </trkpt>
      <trkpt lat="47.29925" lon="6.19345">
        <ele>379</ele>
        <time>2015-04-16T07:40:43Z</time>
      </trkpt>
      <trkpt lat="47.29933" lon="6.19354">
        <ele>382</ele>
        <time>2015-04-16T07:40:54Z</time>
      </trkpt>
      <trkpt lat="47.2995" lon="6.19362">
        <ele>385</ele>
        <time>2015-04-16T07:41:10Z</time>
      </trkpt>
      <trkpt lat="47.29973" lon="6.19386">
        <ele>387</ele>
        <time>2015-04-16T07:41:48Z</time>
      </trkpt>
      <trkpt lat="47.2998" lon="6.19386">
        <ele>388</ele>
        <time>2015-04-16T07:42:13Z</time>
      </trkpt>
      <trkpt lat="47.2998" lon="6.19384">
        <ele>392</ele>
        <time>2015-04-16T07:42:22Z</time>
      </trkpt>
      <trkpt lat="47.29986" lon="6.19392">
        <ele>396</ele>
        <time>2015-04-16T07:44:19Z</time>
      </trkpt>
      <trkpt lat="47.29987" lon="6.19403">
        <ele>396</ele>
        <time>2015-04-16T07:45:06Z</time>
      </trkpt>
      <trkpt lat="47.29986" lon="6.19409">
        <ele>392</ele>
        <time>2015-04-16T07:45:41Z</time>
      </trkpt>
      <trkpt lat="47.29991" lon="6.19416">
        <ele>392</ele>
        <time>2015-04-16T07:46:08Z</time>
      </trkpt>
      <trkpt lat="47.29994" lon="6.19429">
        <ele>392</ele>
        <time>2015-04-16T07:46:22Z</time>
      </trkpt>
      <trkpt lat="47.30019" lon="6.19453">
        <ele>400</ele>
        <time>2015-04-16T07:47:02Z</time>
      </trkpt>
      <trkpt lat="47.30025" lon="6.19465">
        <ele>400</ele>
        <time>2015-04-16T07:47:10Z</time>
      </trkpt>
      <trkpt lat="47.3004" lon="6.19484">
        <ele>400</ele>
        <time>2015-04-16T07:47:30Z</time>
      </trkpt>
      <trkpt lat="47.30049" lon="6.19488">
        <ele>400</ele>
        <time>2015-04-16T07:47:39Z</time>
      </trkpt>
      <trkpt lat="47.30059" lon="6.1949">
        <ele>401</ele>
        <time>2015-04-16T07:47:52Z</time>
      </trkpt>
      <trkpt lat="47.30068" lon="6.19487">
        <ele>402</ele>
        <time>2015-04-16T07:48:04Z</time>
      </trkpt>
      <trkpt lat="47.30078" lon="6.19484">
        <ele>402</ele>
        <time>2015-04-16T07:48:14Z</time>
      </trkpt>
      <trkpt lat="47.30087" lon="6.19478">
        <ele>401</ele>
        <time>2015-04-16T07:48:23Z</time>
      </trkpt>
      <trkpt lat="47.30121" lon="6.19455">
        <ele>404</ele>
        <time>2015-04-16T07:48:57Z</time>
      </trkpt>
      <trkpt lat="47.30131" lon="6.19449">
        <ele>407</ele>
        <time>2015-04-16T07:49:08Z</time>
      </trkpt>
      <trkpt lat="47.30141" lon="6.19459">
        <ele>408</ele>
        <time>2015-04-16T07:49:25Z</time>
      </trkpt>
      <trkpt lat="47.3015" lon="6.19463">
        <ele>408</ele>
        <time>2015-04-16T07:49:34Z</time>
      </trkpt>
      <trkpt lat="47.3016" lon="6.19466">
        <ele>410</ele>
        <time>2015-04-16T07:49:44Z</time>
      </trkpt>
      <trkpt lat="47.30167" lon="6.19476">
        <ele>411</ele>
        <time>2015-04-16T07:49:56Z</time>
      </trkpt>
      <trkpt lat="47.30184" lon="6.19498">
        <ele>411</ele>
        <time>2015-04-16T07:50:17Z</time>
      </trkpt>
      <trkpt lat="47.30188" lon="6.19511">
        <ele>413</ele>
        <time>2015-04-16T07:50:27Z</time>
      </trkpt>
      <trkpt lat="47.30213" lon="6.19553">
        <ele>419</ele>
        <time>2015-04-16T07:51:04Z</time>
      </trkpt>
      <trkpt lat="47.30231" lon="6.19585">
        <ele>424</ele>
        <time>2015-04-16T07:51:35Z</time>
      </trkpt>
      <trkpt lat="47.30247" lon="6.19621">
        <ele>431</ele>
        <time>2015-04-16T07:52:07Z</time>
      </trkpt>
      <trkpt lat="47.30262" lon="6.19638">
        <ele>436</ele>
        <time>2015-04-16T07:52:26Z</time>
      </trkpt>
      <trkpt lat="47.30265" lon="6.1968">
        <ele>439</ele>
        <time>2015-04-16T07:52:57Z</time>
      </trkpt>
      <trkpt lat="47.30271" lon="6.19706">
        <ele>441</ele>
        <time>2015-04-16T07:53:20Z</time>
      </trkpt>
      <trkpt lat="47.3027" lon="6.1972">
        <ele>441</ele>
        <time>2015-04-16T07:53:28Z</time>
      </trkpt>
      <trkpt lat="47.30277" lon="6.19762">
        <ele>447</ele>
        <time>2015-04-16T07:54:00Z</time>
      </trkpt>
      <trkpt lat="47.3028" lon="6.19774">
        <ele>449</ele>
        <time>2015-04-16T07:54:10Z</time>
      </trkpt>
      <trkpt lat="47.30289" lon="6.19799">
        <ele>449</ele>
        <time>2015-04-16T07:54:28Z</time>
      </trkpt>
      <trkpt lat="47.30293" lon="6.1984">
        <ele>453</ele>
        <time>2015-04-16T07:54:59Z</time>
      </trkpt>
      <trkpt lat="47.30301" lon="6.19865">
        <ele>456</ele>
        <time>2015-04-16T07:55:22Z</time>
      </trkpt>
      <trkpt lat="47.30302" lon="6.19878">
        <ele>456</ele>
        <time>2015-04-16T07:55:30Z</time>
      </trkpt>
      <trkpt lat="47.30305" lon="6.1992">
        <ele>460</ele>
        <time>2015-04-16T07:56:02Z</time>
      </trkpt>
      <trkpt lat="47.30319" lon="6.19971">
        <ele>466</ele>
        <time>2015-04-16T07:56:40Z</time>
      </trkpt>
      <trkpt lat="47.3032" lon="6.19984">
        <ele>467</ele>
        <time>2015-04-16T07:56:50Z</time>
      </trkpt>
      <trkpt lat="47.30332" lon="6.20006">
        <ele>467</ele>
        <time>2015-04-16T07:57:13Z</time>
      </trkpt>
      <trkpt lat="47.3033" lon="6.20021">
        <ele>468</ele>
        <time>2015-04-16T07:57:21Z</time>
      </trkpt>
      <trkpt lat="47.30328" lon="6.20034">
        <ele>470</ele>
        <time>2015-04-16T07:57:30Z</time>
      </trkpt>
      <trkpt lat="47.30338" lon="6.20088">
        <ele>478</ele>
        <time>2015-04-16T07:58:08Z</time>
      </trkpt>
      <trkpt lat="47.3034" lon="6.20102">
        <ele>479</ele>
        <time>2015-04-16T07:58:22Z</time>
      </trkpt>
      <trkpt lat="47.30345" lon="6.20114">
        <ele>479</ele>
        <time>2015-04-16T07:58:30Z</time>
      </trkpt>
      <trkpt lat="47.30353" lon="6.20167">
        <ele>483</ele>
        <time>2015-04-16T07:59:12Z</time>
      </trkpt>
      <trkpt lat="47.30361" lon="6.20206">
        <ele>488</ele>
        <time>2015-04-16T07:59:45Z</time>
      </trkpt>
      <trkpt lat="47.30368" lon="6.20208">
        <ele>490</ele>
        <time>2015-04-16T08:00:02Z</time>
      </trkpt>
      <trkpt lat="47.30374" lon="6.20202">
        <ele>491</ele>
        <time>2015-04-16T08:00:44Z</time>
      </trkpt>
      <trkpt lat="47.30383" lon="6.20203">
        <ele>490</ele>
        <time>2015-04-16T08:00:56Z</time>
      </trkpt>
      <trkpt lat="47.30392" lon="6.20201">
        <ele>490</ele>
        <time>2015-04-16T08:01:06Z</time>
      </trkpt>
      <trkpt lat="47.30409" lon="6.20216">
        <ele>488</ele>
        <time>2015-04-16T08:01:28Z</time>
      </trkpt>
      <trkpt lat="47.30419" lon="6.20217">
        <ele>488</ele>
        <time>2015-04-16T08:01:39Z</time>
      </trkpt>
      <trkpt lat="47.30428" lon="6.20222">
        <ele>488</ele>
        <time>2015-04-16T08:01:52Z</time>
      </trkpt>
      <trkpt lat="47.30436" lon="6.20227">
        <ele>488</ele>
        <time>2015-04-16T08:02:03Z</time>
      </trkpt>
      <trkpt lat="47.30445" lon="6.20229">
        <ele>488</ele>
        <time>2015-04-16T08:02:13Z</time>
      </trkpt>
      <trkpt lat="47.30454" lon="6.20224">
        <ele>486</ele>
        <time>2015-04-16T08:02:24Z</time>
      </trkpt>
      <trkpt lat="47.30463" lon="6.20229">
        <ele>485</ele>
        <time>2015-04-16T08:02:34Z</time>
      </trkpt>
      <trkpt lat="47.30482" lon="6.20222">
        <ele>484</ele>
        <time>2015-04-16T08:02:49Z</time>
      </trkpt>
      <trkpt lat="47.3049" lon="6.20229">
        <ele>484</ele>
        <time>2015-04-16T08:03:00Z</time>
      </trkpt>
      <trkpt lat="47.30504" lon="6.20246">
        <ele>486</ele>
        <time>2015-04-16T08:03:24Z</time>
      </trkpt>
      <trkpt lat="47.30503" lon="6.20263">
        <ele>487</ele>
        <time>2015-04-16T08:04:15Z</time>
      </trkpt>
      <trkpt lat="47.30498" lon="6.20262">
        <ele>486</ele>
        <time>2015-04-16T08:04:27Z</time>
      </trkpt>
      <trkpt lat="47.30493" lon="6.20274">
        <ele>484</ele>
        <time>2015-04-16T08:04:38Z</time>
      </trkpt>
      <trkpt lat="47.30487" lon="6.20284">
        <ele>484</ele>
        <time>2015-04-16T08:04:40Z</time>
      </trkpt>
      <trkpt lat="47.30472" lon="6.20297">
        <ele>480</ele>
        <time>2015-04-16T08:04:59Z</time>
      </trkpt>
      <trkpt lat="47.30474" lon="6.20304">
        <ele>479</ele>
        <time>2015-04-16T08:05:11Z</time>
      </trkpt>
      <trkpt lat="47.30466" lon="6.20318">
        <ele>478</ele>
        <time>2015-04-16T08:05:43Z</time>
      </trkpt>
      <trkpt lat="47.30464" lon="6.20327">
        <ele>476</ele>
        <time>2015-04-16T08:06:32Z</time>
      </trkpt>
      <trkpt lat="47.30466" lon="6.20338">
        <ele>475</ele>
        <time>2015-04-16T08:07:06Z</time>
      </trkpt>
      <trkpt lat="47.30463" lon="6.20335">
        <ele>474</ele>
        <time>2015-04-16T08:07:35Z</time>
      </trkpt>
      <trkpt lat="47.3046" lon="6.20332">
        <ele>472</ele>
        <time>2015-04-16T08:08:08Z</time>
      </trkpt>
      <trkpt lat="47.3046" lon="6.20331">
        <ele>480</ele>
        <time>2015-04-16T08:09:52Z</time>
      </trkpt>
      <trkpt lat="47.30465" lon="6.20327">
        <ele>481</ele>
        <time>2015-04-16T08:09:55Z</time>
      </trkpt>
      <trkpt lat="47.30464" lon="6.20326">
        <ele>484</ele>
        <time>2015-04-16T08:10:25Z</time>
      </trkpt>
      <trkpt lat="47.30467" lon="6.20317">
        <ele>480</ele>
        <time>2015-04-16T08:11:21Z</time>
      </trkpt>
      <trkpt lat="47.3047" lon="6.20318">
        <ele>479</ele>
        <time>2015-04-16T08:11:38Z</time>
      </trkpt>
      <trkpt lat="47.3047" lon="6.20311">
        <ele>475</ele>
        <time>2015-04-16T08:11:48Z</time>
      </trkpt>
      <trkpt lat="47.30474" lon="6.20306">
        <ele>472</ele>
        <time>2015-04-16T08:12:05Z</time>
      </trkpt>
      <trkpt lat="47.30476" lon="6.203">
        <ele>470</ele>
        <time>2015-04-16T08:12:15Z</time>
      </trkpt>
      <trkpt lat="47.30479" lon="6.20298">
        <ele>470</ele>
        <time>2015-04-16T08:12:22Z</time>
      </trkpt>
      <trkpt lat="47.30481" lon="6.20291">
        <ele>470</ele>
        <time>2015-04-16T08:12:35Z</time>
      </trkpt>
      <trkpt lat="47.30492" lon="6.2028">
        <ele>468</ele>
        <time>2015-04-16T08:13:01Z</time>
      </trkpt>
      <trkpt lat="47.30494" lon="6.20273">
        <ele>468</ele>
        <time>2015-04-16T08:13:17Z</time>
      </trkpt>
      <trkpt lat="47.305" lon="6.20265">
        <ele>472</ele>
        <time>2015-04-16T08:13:43Z</time>
      </trkpt>
      <trkpt lat="47.30502" lon="6.20251">
        <ele>475</ele>
        <time>2015-04-16T08:13:59Z</time>
      </trkpt>
      <trkpt lat="47.30511" lon="6.20257">
        <ele>479</ele>
        <time>2015-04-16T08:14:16Z</time>
      </trkpt>
      <trkpt lat="47.30518" lon="6.20254">
        <ele>486</ele>
        <time>2015-04-16T08:16:16Z</time>
      </trkpt>
      <trkpt lat="47.30527" lon="6.20259">
        <ele>486</ele>
        <time>2015-04-16T08:16:29Z</time>
      </trkpt>
      <trkpt lat="47.30536" lon="6.20256">
        <ele>486</ele>
        <time>2015-04-16T08:16:39Z</time>
      </trkpt>
      <trkpt lat="47.30544" lon="6.20262">
        <ele>484</ele>
        <time>2015-04-16T08:16:58Z</time>
      </trkpt>
      <trkpt lat="47.30547" lon="6.20275">
        <ele>484</ele>
        <time>2015-04-16T08:17:08Z</time>
      </trkpt>
      <trkpt lat="47.30565" lon="6.20316">
        <ele>477</ele>
        <time>2015-04-16T08:18:05Z</time>
      </trkpt>
      <trkpt lat="47.30568" lon="6.20353">
        <ele>470</ele>
        <time>2015-04-16T08:18:49Z</time>
      </trkpt>
      <trkpt lat="47.30577" lon="6.20379">
        <ele>463</ele>
        <time>2015-04-16T08:19:43Z</time>
      </trkpt>
      <trkpt lat="47.30585" lon="6.20388">
        <ele>462</ele>
        <time>2015-04-16T08:19:54Z</time>
      </trkpt>
      <trkpt lat="47.30589" lon="6.204">
        <ele>459</ele>
        <time>2015-04-16T08:20:10Z</time>
      </trkpt>
      <trkpt lat="47.30591" lon="6.20414">
        <ele>457</ele>
        <time>2015-04-16T08:20:23Z</time>
      </trkpt>
      <trkpt lat="47.30584" lon="6.20439">
        <ele>454</ele>
        <time>2015-04-16T08:20:47Z</time>
      </trkpt>
      <trkpt lat="47.30589" lon="6.20454">
        <ele>448</ele>
        <time>2015-04-16T08:21:08Z</time>
      </trkpt>
      <trkpt lat="47.30596" lon="6.2048">
        <ele>446</ele>
        <time>2015-04-16T08:21:35Z</time>
      </trkpt>
      <trkpt lat="47.30606" lon="6.2049">
        <ele>446</ele>
        <time>2015-04-16T08:21:53Z</time>
      </trkpt>
      <trkpt lat="47.30609" lon="6.20502">
        <ele>446</ele>
        <time>2015-04-16T08:22:07Z</time>
      </trkpt>
      <trkpt lat="47.30625" lon="6.20532">
        <ele>439</ele>
        <time>2015-04-16T08:22:55Z</time>
      </trkpt>
      <trkpt lat="47.30623" lon="6.20546">
        <ele>436</ele>
        <time>2015-04-16T08:23:05Z</time>
      </trkpt>
      <trkpt lat="47.30617" lon="6.20572">
        <ele>431</ele>
        <time>2015-04-16T08:23:24Z</time>
      </trkpt>
      <trkpt lat="47.3062" lon="6.20604">
        <ele>423</ele>
        <time>2015-04-16T08:24:00Z</time>
      </trkpt>
      <trkpt lat="47.3062" lon="6.20618">
        <ele>422</ele>
        <time>2015-04-16T08:24:10Z</time>
      </trkpt>
      <trkpt lat="47.30616" lon="6.20631">
        <ele>419</ele>
        <time>2015-04-16T08:24:18Z</time>
      </trkpt>
      <trkpt lat="47.30614" lon="6.20659">
        <ele>418</ele>
        <time>2015-04-16T08:24:37Z</time>
      </trkpt>
      <trkpt lat="47.30622" lon="6.20658">
        <ele>417</ele>
        <time>2015-04-16T08:24:58Z</time>
      </trkpt>
      <trkpt lat="47.30623" lon="6.20671">
        <ele>412</ele>
        <time>2015-04-16T08:25:55Z</time>
      </trkpt>
      <trkpt lat="47.30629" lon="6.20682">
        <ele>411</ele>
        <time>2015-04-16T08:26:05Z</time>
      </trkpt>
      <trkpt lat="47.30637" lon="6.20692">
        <ele>412</ele>
        <time>2015-04-16T08:26:20Z</time>
      </trkpt>
      <trkpt lat="47.30642" lon="6.20724">
        <ele>414</ele>
        <time>2015-04-16T08:26:54Z</time>
      </trkpt>
      <trkpt lat="47.30639" lon="6.20737">
        <ele>415</ele>
        <time>2015-04-16T08:27:04Z</time>
      </trkpt>
      <trkpt lat="47.30637" lon="6.20779">
        <ele>412</ele>
        <time>2015-04-16T08:27:31Z</time>
      </trkpt>
      <trkpt lat="47.30637" lon="6.20792">
        <ele>412</ele>
        <time>2015-04-16T08:27:37Z</time>
      </trkpt>
      <trkpt lat="47.3064" lon="6.20806">
        <ele>414</ele>
        <time>2015-04-16T08:27:50Z</time>
      </trkpt>
      <trkpt lat="47.30644" lon="6.20818">
        <ele>414</ele>
        <time>2015-04-16T08:28:05Z</time>
      </trkpt>
      <trkpt lat="47.30645" lon="6.20832">
        <ele>413</ele>
        <time>2015-04-16T08:28:17Z</time>
      </trkpt>
      <trkpt lat="47.30643" lon="6.20845">
        <ele>413</ele>
        <time>2015-04-16T08:28:26Z</time>
      </trkpt>
      <trkpt lat="47.30645" lon="6.20859">
        <ele>414</ele>
        <time>2015-04-16T08:28:38Z</time>
      </trkpt>
      <trkpt lat="47.30645" lon="6.20873">
        <ele>414</ele>
        <time>2015-04-16T08:28:50Z</time>
      </trkpt>
      <trkpt lat="47.30642" lon="6.20888">
        <ele>413</ele>
        <time>2015-04-16T08:29:01Z</time>
      </trkpt>
      <trkpt lat="47.30644" lon="6.20929">
        <ele>415</ele>
        <time>2015-04-16T08:29:38Z</time>
      </trkpt>
      <trkpt lat="47.30646" lon="6.20943">
        <ele>415</ele>
        <time>2015-04-16T08:29:49Z</time>
      </trkpt>
      <trkpt lat="47.30641" lon="6.20956">
        <ele>416</ele>
        <time>2015-04-16T08:29:57Z</time>
      </trkpt>
      <trkpt lat="47.3064" lon="6.20969">
        <ele>417</ele>
        <time>2015-04-16T08:30:08Z</time>
      </trkpt>
      <trkpt lat="47.30641" lon="6.20983">
        <ele>417</ele>
        <time>2015-04-16T08:30:18Z</time>
      </trkpt>
      <trkpt lat="47.30644" lon="6.20995">
        <ele>418</ele>
        <time>2015-04-16T08:30:29Z</time>
      </trkpt>
      <trkpt lat="47.3065" lon="6.21037">
        <ele>418</ele>
        <time>2015-04-16T08:31:00Z</time>
      </trkpt>
      <trkpt lat="47.30652" lon="6.21078">
        <ele>420</ele>
        <time>2015-04-16T08:31:31Z</time>
      </trkpt>
      <trkpt lat="47.30665" lon="6.21115">
        <ele>419</ele>
        <time>2015-04-16T08:32:02Z</time>
      </trkpt>
      <trkpt lat="47.30674" lon="6.21121">
        <ele>419</ele>
        <time>2015-04-16T08:32:10Z</time>
      </trkpt>
      <trkpt lat="47.30679" lon="6.21132">
        <ele>419</ele>
        <time>2015-04-16T08:32:21Z</time>
      </trkpt>
      <trkpt lat="47.30678" lon="6.21146">
        <ele>418</ele>
        <time>2015-04-16T08:32:33Z</time>
      </trkpt>
      <trkpt lat="47.30675" lon="6.21173">
        <ele>419</ele>
        <time>2015-04-16T08:32:52Z</time>
      </trkpt>
      <trkpt lat="47.30677" lon="6.21186">
        <ele>419</ele>
        <time>2015-04-16T08:33:03Z</time>
      </trkpt>
      <trkpt lat="47.30675" lon="6.21201">
        <ele>417</ele>
        <time>2015-04-16T08:33:17Z</time>
      </trkpt>
      <trkpt lat="47.30673" lon="6.21215">
        <ele>417</ele>
        <time>2015-04-16T08:33:24Z</time>
      </trkpt>
      <trkpt lat="47.3067" lon="6.21229">
        <ele>416</ele>
        <time>2015-04-16T08:33:34Z</time>
      </trkpt>
      <trkpt lat="47.30672" lon="6.21256">
        <ele>414</ele>
        <time>2015-04-16T08:33:57Z</time>
      </trkpt>
      <trkpt lat="47.30667" lon="6.21269">
        <ele>414</ele>
        <time>2015-04-16T08:34:06Z</time>
      </trkpt>
      <trkpt lat="47.30661" lon="6.21279">
        <ele>415</ele>
        <time>2015-04-16T08:34:16Z</time>
      </trkpt>
      <trkpt lat="47.30644" lon="6.21301">
        <ele>412</ele>
        <time>2015-04-16T08:34:40Z</time>
      </trkpt>
      <trkpt lat="47.30641" lon="6.21314">
        <ele>410</ele>
        <time>2015-04-16T08:34:48Z</time>
      </trkpt>
      <trkpt lat="47.30642" lon="6.21329">
        <ele>409</ele>
        <time>2015-04-16T08:34:57Z</time>
      </trkpt>
      <trkpt lat="47.30644" lon="6.21343">
        <ele>409</ele>
        <time>2015-04-16T08:35:06Z</time>
      </trkpt>
      <trkpt lat="47.30654" lon="6.21367">
        <ele>413</ele>
        <time>2015-04-16T08:35:29Z</time>
      </trkpt>
      <trkpt lat="47.3066" lon="6.21377">
        <ele>413</ele>
        <time>2015-04-16T08:35:37Z</time>
      </trkpt>
      <trkpt lat="47.30661" lon="6.21405">
        <ele>416</ele>
        <time>2015-04-16T08:36:00Z</time>
      </trkpt>
      <trkpt lat="47.30654" lon="6.21461">
        <ele>418</ele>
        <time>2015-04-16T08:36:35Z</time>
      </trkpt>
      <trkpt lat="47.30656" lon="6.21476">
        <ele>418</ele>
        <time>2015-04-16T08:36:44Z</time>
      </trkpt>
      <trkpt lat="47.30656" lon="6.2149">
        <ele>419</ele>
        <time>2015-04-16T08:36:53Z</time>
      </trkpt>
      <trkpt lat="47.30651" lon="6.21545">
        <ele>423</ele>
        <time>2015-04-16T08:37:30Z</time>
      </trkpt>
      <trkpt lat="47.30654" lon="6.21602">
        <ele>429</ele>
        <time>2015-04-16T08:38:06Z</time>
      </trkpt>
      <trkpt lat="47.30665" lon="6.2164">
        <ele>432</ele>
        <time>2015-04-16T08:38:34Z</time>
      </trkpt>
      <trkpt lat="47.30684" lon="6.21688">
        <ele>431</ele>
        <time>2015-04-16T08:39:12Z</time>
      </trkpt>
      <trkpt lat="47.30694" lon="6.21728">
        <ele>436</ele>
        <time>2015-04-16T08:39:43Z</time>
      </trkpt>
      <trkpt lat="47.30699" lon="6.21784">
        <ele>440</ele>
        <time>2015-04-16T08:40:19Z</time>
      </trkpt>
      <trkpt lat="47.30698" lon="6.21799">
        <ele>440</ele>
        <time>2015-04-16T08:40:26Z</time>
      </trkpt>
      <trkpt lat="47.30707" lon="6.21851">
        <ele>445</ele>
        <time>2015-04-16T08:41:07Z</time>
      </trkpt>
      <trkpt lat="47.30711" lon="6.21863">
        <ele>446</ele>
        <time>2015-04-16T08:41:17Z</time>
      </trkpt>
      <trkpt lat="47.30715" lon="6.21876">
        <ele>446</ele>
        <time>2015-04-16T08:41:29Z</time>
      </trkpt>
      <trkpt lat="47.30714" lon="6.21889">
        <ele>448</ele>
        <time>2015-04-16T08:41:43Z</time>
      </trkpt>
      <trkpt lat="47.30714" lon="6.21918">
        <ele>448</ele>
        <time>2015-04-16T08:42:01Z</time>
      </trkpt>
      <trkpt lat="47.3072" lon="6.21931">
        <ele>449</ele>
        <time>2015-04-16T08:42:12Z</time>
      </trkpt>
      <trkpt lat="47.30724" lon="6.21942">
        <ele>452</ele>
        <time>2015-04-16T08:42:25Z</time>
      </trkpt>
      <trkpt lat="47.30721" lon="6.21956">
        <ele>454</ele>
        <time>2015-04-16T08:42:41Z</time>
      </trkpt>
      <trkpt lat="47.30714" lon="6.21959">
        <ele>454</ele>
        <time>2015-04-16T08:42:58Z</time>
      </trkpt>
      <trkpt lat="47.30703" lon="6.21959">
        <ele>453</ele>
        <time>2015-04-16T08:43:44Z</time>
      </trkpt>
      <trkpt lat="47.30706" lon="6.21965">
        <ele>454</ele>
        <time>2015-04-16T08:43:59Z</time>
      </trkpt>
      <trkpt lat="47.30708" lon="6.21975">
        <ele>455</ele>
        <time>2015-04-16T08:44:43Z</time>
      </trkpt>
      <trkpt lat="47.30718" lon="6.21976">
        <ele>454</ele>
        <time>2015-04-16T08:45:02Z</time>
      </trkpt>
      <trkpt lat="47.30716" lon="6.21966">
        <ele>448</ele>
        <time>2015-04-16T08:47:15Z</time>
      </trkpt>
      <trkpt lat="47.30711" lon="6.21967">
        <ele>449</ele>
        <time>2015-04-16T08:47:35Z</time>
      </trkpt>
      <trkpt lat="47.30707" lon="6.21974">
        <ele>450</ele>
        <time>2015-04-16T08:48:21Z</time>
      </trkpt>
      <trkpt lat="47.30702" lon="6.2199">
        <ele>452</ele>
        <time>2015-04-16T08:49:35Z</time>
      </trkpt>
      <trkpt lat="47.30689" lon="6.22042">
        <ele>458</ele>
        <time>2015-04-16T08:50:10Z</time>
      </trkpt>
      <trkpt lat="47.30684" lon="6.22069">
        <ele>458</ele>
        <time>2015-04-16T08:50:30Z</time>
      </trkpt>
      <trkpt lat="47.30685" lon="6.22083">
        <ele>457</ele>
        <time>2015-04-16T08:50:40Z</time>
      </trkpt>
      <trkpt lat="47.30676" lon="6.22122">
        <ele>455</ele>
        <time>2015-04-16T08:51:05Z</time>
      </trkpt>
      <trkpt lat="47.30673" lon="6.22136">
        <ele>453</ele>
        <time>2015-04-16T08:51:15Z</time>
      </trkpt>
      <trkpt lat="47.3067" lon="6.22149">
        <ele>452</ele>
        <time>2015-04-16T08:51:23Z</time>
      </trkpt>
      <trkpt lat="47.30671" lon="6.22162">
        <ele>451</ele>
        <time>2015-04-16T08:51:33Z</time>
      </trkpt>
      <trkpt lat="47.30668" lon="6.22175">
        <ele>451</ele>
        <time>2015-04-16T08:51:40Z</time>
      </trkpt>
      <trkpt lat="47.30666" lon="6.22202">
        <ele>450</ele>
        <time>2015-04-16T08:52:00Z</time>
      </trkpt>
      <trkpt lat="47.30669" lon="6.22216">
        <ele>450</ele>
        <time>2015-04-16T08:52:10Z</time>
      </trkpt>
      <trkpt lat="47.3067" lon="6.22258">
        <ele>450</ele>
        <time>2015-04-16T08:52:41Z</time>
      </trkpt>
      <trkpt lat="47.30673" lon="6.22271">
        <ele>450</ele>
        <time>2015-04-16T08:52:52Z</time>
      </trkpt>
      <trkpt lat="47.30677" lon="6.22283">
        <ele>450</ele>
        <time>2015-04-16T08:53:05Z</time>
      </trkpt>
      <trkpt lat="47.3068" lon="6.2231">
        <ele>452</ele>
        <time>2015-04-16T08:53:31Z</time>
      </trkpt>
      <trkpt lat="47.30674" lon="6.22336">
        <ele>455</ele>
        <time>2015-04-16T08:53:50Z</time>
      </trkpt>
      <trkpt lat="47.30678" lon="6.22377">
        <ele>461</ele>
        <time>2015-04-16T08:54:32Z</time>
      </trkpt>
      <trkpt lat="47.30679" lon="6.22391">
        <ele>462</ele>
        <time>2015-04-16T08:54:47Z</time>
      </trkpt>
      <trkpt lat="47.30678" lon="6.22404">
        <ele>465</ele>
        <time>2015-04-16T08:55:02Z</time>
      </trkpt>
      <trkpt lat="47.30681" lon="6.22416">
        <ele>469</ele>
        <time>2015-04-16T08:55:26Z</time>
      </trkpt>
      <trkpt lat="47.30672" lon="6.22418">
        <ele>471</ele>
        <time>2015-04-16T08:55:43Z</time>
      </trkpt>
      <trkpt lat="47.30669" lon="6.22432">
        <ele>475</ele>
        <time>2015-04-16T08:55:55Z</time>
      </trkpt>
      <trkpt lat="47.30674" lon="6.22443">
        <ele>475</ele>
        <time>2015-04-16T08:56:05Z</time>
      </trkpt>
      <trkpt lat="47.30667" lon="6.22452">
        <ele>476</ele>
        <time>2015-04-16T08:56:17Z</time>
      </trkpt>
      <trkpt lat="47.30663" lon="6.22465">
        <ele>476</ele>
        <time>2015-04-16T08:56:28Z</time>
      </trkpt>
      <trkpt lat="47.30662" lon="6.22479">
        <ele>478</ele>
        <time>2015-04-16T08:56:37Z</time>
      </trkpt>
      <trkpt lat="47.30658" lon="6.22506">
        <ele>478</ele>
        <time>2015-04-16T08:56:58Z</time>
      </trkpt>
      <trkpt lat="47.30651" lon="6.22515">
        <ele>479</ele>
        <time>2015-04-16T08:57:09Z</time>
      </trkpt>
      <trkpt lat="47.30644" lon="6.22524">
        <ele>479</ele>
        <time>2015-04-16T08:57:22Z</time>
      </trkpt>
      <trkpt lat="47.30635" lon="6.22521">
        <ele>479</ele>
        <time>2015-04-16T08:57:30Z</time>
      </trkpt>
      <trkpt lat="47.30625" lon="6.22519">
        <ele>478</ele>
        <time>2015-04-16T08:57:41Z</time>
      </trkpt>
      <trkpt lat="47.30621" lon="6.22507">
        <ele>477</ele>
        <time>2015-04-16T08:57:52Z</time>
      </trkpt>
      <trkpt lat="47.30615" lon="6.22501">
        <ele>474</ele>
        <time>2015-04-16T08:58:08Z</time>
      </trkpt>
      <trkpt lat="47.30603" lon="6.225">
        <ele>471</ele>
        <time>2015-04-16T08:58:28Z</time>
      </trkpt>
      <trkpt lat="47.30583" lon="6.22506">
        <ele>469</ele>
        <time>2015-04-16T08:58:38Z</time>
      </trkpt>
      <trkpt lat="47.30577" lon="6.22496">
        <ele>466</ele>
        <time>2015-04-16T08:58:48Z</time>
      </trkpt>
      <trkpt lat="47.30567" lon="6.22499">
        <ele>464</ele>
        <time>2015-04-16T08:59:01Z</time>
      </trkpt>
      <trkpt lat="47.30559" lon="6.22506">
        <ele>463</ele>
        <time>2015-04-16T08:59:07Z</time>
      </trkpt>
      <trkpt lat="47.30558" lon="6.2252">
        <ele>463</ele>
        <time>2015-04-16T08:59:16Z</time>
      </trkpt>
      <trkpt lat="47.3055" lon="6.22527">
        <ele>463</ele>
        <time>2015-04-16T08:59:30Z</time>
      </trkpt>
      <trkpt lat="47.3054" lon="6.22525">
        <ele>463</ele>
        <time>2015-04-16T08:59:43Z</time>
      </trkpt>
      <trkpt lat="47.30521" lon="6.22532">
        <ele>463</ele>
        <time>2015-04-16T09:00:02Z</time>
      </trkpt>
      <trkpt lat="47.30515" lon="6.22542">
        <ele>464</ele>
        <time>2015-04-16T09:00:15Z</time>
      </trkpt>
      <trkpt lat="47.3051" lon="6.22553">
        <ele>463</ele>
        <time>2015-04-16T09:00:26Z</time>
      </trkpt>
      <trkpt lat="47.30504" lon="6.22564">
        <ele>465</ele>
        <time>2015-04-16T09:00:44Z</time>
      </trkpt>
      <trkpt lat="47.30503" lon="6.22578">
        <ele>467</ele>
        <time>2015-04-16T09:00:56Z</time>
      </trkpt>
      <trkpt lat="47.30496" lon="6.22586">
        <ele>467</ele>
        <time>2015-04-16T09:01:09Z</time>
      </trkpt>
      <trkpt lat="47.30489" lon="6.22598">
        <ele>469</ele>
        <time>2015-04-16T09:01:25Z</time>
      </trkpt>
      <trkpt lat="47.30466" lon="6.22606">
        <ele>478</ele>
        <time>2015-04-16T09:02:31Z</time>
      </trkpt>
      <trkpt lat="47.30465" lon="6.22614">
        <ele>479</ele>
        <time>2015-04-16T09:02:44Z</time>
      </trkpt>
      <trkpt lat="47.30459" lon="6.22615">
        <ele>485</ele>
        <time>2015-04-16T09:03:02Z</time>
      </trkpt>
      <trkpt lat="47.30454" lon="6.22622">
        <ele>486</ele>
        <time>2015-04-16T09:03:26Z</time>
      </trkpt>
      <trkpt lat="47.30453" lon="6.22635">
        <ele>486</ele>
        <time>2015-04-16T09:03:36Z</time>
      </trkpt>
      <trkpt lat="47.30453" lon="6.22647">
        <ele>486</ele>
        <time>2015-04-16T09:03:54Z</time>
      </trkpt>
      <trkpt lat="47.30454" lon="6.22657">
        <ele>487</ele>
        <time>2015-04-16T09:04:09Z</time>
      </trkpt>
      <trkpt lat="47.30448" lon="6.2266">
        <ele>489</ele>
        <time>2015-04-16T09:04:29Z</time>
      </trkpt>
      <trkpt lat="47.30446" lon="6.22673">
        <ele>490</ele>
        <time>2015-04-16T09:04:38Z</time>
      </trkpt>
      <trkpt lat="47.30457" lon="6.22683">
        <ele>491</ele>
        <time>2015-04-16T09:04:54Z</time>
      </trkpt>
      <trkpt lat="47.30455" lon="6.22683">
        <ele>491</ele>
        <time>2015-04-16T09:06:00Z</time>
      </trkpt>
      <trkpt lat="47.30451" lon="6.22695">
        <ele>490</ele>
        <time>2015-04-16T09:06:11Z</time>
      </trkpt>
      <trkpt lat="47.30448" lon="6.22711">
        <ele>489</ele>
        <time>2015-04-16T09:06:34Z</time>
      </trkpt>
      <trkpt lat="47.30443" lon="6.22718">
        <ele>490</ele>
        <time>2015-04-16T09:06:50Z</time>
      </trkpt>
      <trkpt lat="47.30433" lon="6.22715">
        <ele>490</ele>
        <time>2015-04-16T09:07:00Z</time>
      </trkpt>
      <trkpt lat="47.30429" lon="6.22727">
        <ele>490</ele>
        <time>2015-04-16T09:07:10Z</time>
      </trkpt>
      <trkpt lat="47.3042" lon="6.22749">
        <ele>496</ele>
        <time>2015-04-16T09:07:43Z</time>
      </trkpt>
      <trkpt lat="47.30413" lon="6.2276">
        <ele>497</ele>
        <time>2015-04-16T09:08:07Z</time>
      </trkpt>
      <trkpt lat="47.30403" lon="6.22762">
        <ele>502</ele>
        <time>2015-04-16T09:08:35Z</time>
      </trkpt>
      <trkpt lat="47.304" lon="6.22774">
        <ele>503</ele>
        <time>2015-04-16T09:08:56Z</time>
      </trkpt>
      <trkpt lat="47.30381" lon="6.22805">
        <ele>515</ele>
        <time>2015-04-16T09:09:40Z</time>
      </trkpt>
      <trkpt lat="47.30377" lon="6.22823">
        <ele>514</ele>
        <time>2015-04-16T09:10:07Z</time>
      </trkpt>
      <trkpt lat="47.30365" lon="6.22843">
        <ele>517</ele>
        <time>2015-04-16T09:10:32Z</time>
      </trkpt>
      <trkpt lat="47.30362" lon="6.22856">
        <ele>522</ele>
        <time>2015-04-16T09:10:48Z</time>
      </trkpt>
      <trkpt lat="47.30353" lon="6.22863">
        <ele>523</ele>
        <time>2015-04-16T09:11:02Z</time>
      </trkpt>
      <trkpt lat="47.30344" lon="6.22866">
        <ele>524</ele>
        <time>2015-04-16T09:11:14Z</time>
      </trkpt>
      <trkpt lat="47.30341" lon="6.22879">
        <ele>524</ele>
        <time>2015-04-16T09:11:34Z</time>
      </trkpt>
      <trkpt lat="47.30332" lon="6.22889">
        <ele>523</ele>
        <time>2015-04-16T09:11:59Z</time>
      </trkpt>
      <trkpt lat="47.30327" lon="6.22916">
        <ele>522</ele>
        <time>2015-04-16T09:12:35Z</time>
      </trkpt>
      <trkpt lat="47.30325" lon="6.2293">
        <ele>522</ele>
        <time>2015-04-16T09:12:46Z</time>
      </trkpt>
      <trkpt lat="47.30317" lon="6.22955">
        <ele>525</ele>
        <time>2015-04-16T09:13:08Z</time>
      </trkpt>
      <trkpt lat="47.30313" lon="6.22967">
        <ele>526</ele>
        <time>2015-04-16T09:13:19Z</time>
      </trkpt>
      <trkpt lat="47.3031" lon="6.2298">
        <ele>525</ele>
        <time>2015-04-16T09:13:31Z</time>
      </trkpt>
      <trkpt lat="47.30306" lon="6.22992">
        <ele>525</ele>
        <time>2015-04-16T09:13:50Z</time>
      </trkpt>
      <trkpt lat="47.30305" lon="6.23026">
        <ele>522</ele>
        <time>2015-04-16T09:14:21Z</time>
      </trkpt>
      <trkpt lat="47.30302" lon="6.23056">
        <ele>520</ele>
        <time>2015-04-16T09:14:52Z</time>
      </trkpt>
      <trkpt lat="47.30301" lon="6.2307">
        <ele>518</ele>
        <time>2015-04-16T09:15:04Z</time>
      </trkpt>
      <trkpt lat="47.30295" lon="6.23098">
        <ele>518</ele>
        <time>2015-04-16T09:15:25Z</time>
      </trkpt>
      <trkpt lat="47.30296" lon="6.23112">
        <ele>517</ele>
        <time>2015-04-16T09:15:36Z</time>
      </trkpt>
      <trkpt lat="47.30293" lon="6.23138">
        <ele>515</ele>
        <time>2015-04-16T09:16:07Z</time>
      </trkpt>
      <trkpt lat="47.30294" lon="6.23142">
        <ele>514</ele>
        <time>2015-04-16T09:16:18Z</time>
      </trkpt>
      <trkpt lat="47.30295" lon="6.23154">
        <ele>513</ele>
        <time>2015-04-16T09:16:36Z</time>
      </trkpt>
      <trkpt lat="47.30292" lon="6.23165">
        <ele>511</ele>
        <time>2015-04-16T09:17:06Z</time>
      </trkpt>
      <trkpt lat="47.30292" lon="6.23186">
        <ele>510</ele>
        <time>2015-04-16T09:17:34Z</time>
      </trkpt>
      <trkpt lat="47.30289" lon="6.23202">
        <ele>506</ele>
        <time>2015-04-16T09:17:55Z</time>
      </trkpt>
      <trkpt lat="47.30286" lon="6.23215">
        <ele>505</ele>
        <time>2015-04-16T09:18:14Z</time>
      </trkpt>
      <trkpt lat="47.30286" lon="6.23229">
        <ele>503</ele>
        <time>2015-04-16T09:18:31Z</time>
      </trkpt>
      <trkpt lat="47.30288" lon="6.23236">
        <ele>500</ele>
        <time>2015-04-16T09:18:49Z</time>
      </trkpt>
      <trkpt lat="47.30288" lon="6.23237">
        <ele>499</ele>
        <time>2015-04-16T09:19:41Z</time>
      </trkpt>
      <trkpt lat="47.30284" lon="6.2324">
        <ele>499</ele>
        <time>2015-04-16T09:19:56Z</time>
      </trkpt>
      <trkpt lat="47.30286" lon="6.23228">
        <ele>497</ele>
        <time>2015-04-16T09:24:02Z</time>
      </trkpt>
      <trkpt lat="47.30284" lon="6.23226">
        <ele>501</ele>
        <time>2015-04-16T09:24:52Z</time>
      </trkpt>
      <trkpt lat="47.30293" lon="6.23127">
        <ele>510</ele>
        <time>2015-04-16T09:27:49Z</time>
      </trkpt>
      <trkpt lat="47.30296" lon="6.23087">
        <ele>513</ele>
        <time>2015-04-16T09:28:23Z</time>
      </trkpt>
      <trkpt lat="47.30302" lon="6.23046">
        <ele>515</ele>
        <time>2015-04-16T09:29:02Z</time>
      </trkpt>
      <trkpt lat="47.30304" lon="6.23033">
        <ele>515</ele>
        <time>2015-04-16T09:29:14Z</time>
      </trkpt>
      <trkpt lat="47.30302" lon="6.2302">
        <ele>516</ele>
        <time>2015-04-16T09:29:25Z</time>
      </trkpt>
      <trkpt lat="47.30307" lon="6.23008">
        <ele>518</ele>
        <time>2015-04-16T09:29:37Z</time>
      </trkpt>
      <trkpt lat="47.30312" lon="6.22982">
        <ele>521</ele>
        <time>2015-04-16T09:30:03Z</time>
      </trkpt>
      <trkpt lat="47.30317" lon="6.22969">
        <ele>521</ele>
        <time>2015-04-16T09:30:15Z</time>
      </trkpt>
      <trkpt lat="47.30318" lon="6.22955">
        <ele>523</ele>
        <time>2015-04-16T09:30:26Z</time>
      </trkpt>
      <trkpt lat="47.30325" lon="6.22945">
        <ele>523</ele>
        <time>2015-04-16T09:30:35Z</time>
      </trkpt>
      <trkpt lat="47.30328" lon="6.22932">
        <ele>523</ele>
        <time>2015-04-16T09:30:43Z</time>
      </trkpt>
      <trkpt lat="47.30328" lon="6.22918">
        <ele>523</ele>
        <time>2015-04-16T09:30:51Z</time>
      </trkpt>
      <trkpt lat="47.30335" lon="6.22908">
        <ele>525</ele>
        <time>2015-04-16T09:31:03Z</time>
      </trkpt>
      <trkpt lat="47.30341" lon="6.22898">
        <ele>524</ele>
        <time>2015-04-16T09:31:12Z</time>
      </trkpt>
      <trkpt lat="47.30343" lon="6.22885">
        <ele>524</ele>
        <time>2015-04-16T09:31:27Z</time>
      </trkpt>
      <trkpt lat="47.30358" lon="6.22867">
        <ele>525</ele>
        <time>2015-04-16T09:31:52Z</time>
      </trkpt>
      <trkpt lat="47.30367" lon="6.22864">
        <ele>524</ele>
        <time>2015-04-16T09:32:09Z</time>
      </trkpt>
      <trkpt lat="47.30373" lon="6.22854">
        <ele>521</ele>
        <time>2015-04-16T09:32:20Z</time>
      </trkpt>
      <trkpt lat="47.30381" lon="6.22826">
        <ele>519</ele>
        <time>2015-04-16T09:32:45Z</time>
      </trkpt>
      <trkpt lat="47.30389" lon="6.22818">
        <ele>519</ele>
        <time>2015-04-16T09:32:52Z</time>
      </trkpt>
      <trkpt lat="47.30408" lon="6.22786">
        <ele>514</ele>
        <time>2015-04-16T09:33:31Z</time>
      </trkpt>
      <trkpt lat="47.30416" lon="6.22769">
        <ele>512</ele>
        <time>2015-04-16T09:33:56Z</time>
      </trkpt>
      <trkpt lat="47.30433" lon="6.22759">
        <ele>511</ele>
        <time>2015-04-16T09:34:20Z</time>
      </trkpt>
      <trkpt lat="47.30438" lon="6.22756">
        <ele>511</ele>
        <time>2015-04-16T09:34:37Z</time>
      </trkpt>
      <trkpt lat="47.30446" lon="6.22745">
        <ele>508</ele>
        <time>2015-04-16T09:34:59Z</time>
      </trkpt>
      <trkpt lat="47.30453" lon="6.22737">
        <ele>507</ele>
        <time>2015-04-16T09:35:10Z</time>
      </trkpt>
      <trkpt lat="47.30459" lon="6.22726">
        <ele>504</ele>
        <time>2015-04-16T09:35:33Z</time>
      </trkpt>
      <trkpt lat="47.30458" lon="6.2271">
        <ele>500</ele>
        <time>2015-04-16T09:35:55Z</time>
      </trkpt>
      <trkpt lat="47.30471" lon="6.22674">
        <ele>490</ele>
        <time>2015-04-16T09:36:28Z</time>
      </trkpt>
      <trkpt lat="47.30471" lon="6.22661">
        <ele>490</ele>
        <time>2015-04-16T09:36:41Z</time>
      </trkpt>
      <trkpt lat="47.30467" lon="6.22649">
        <ele>489</ele>
        <time>2015-04-16T09:36:59Z</time>
      </trkpt>
      <trkpt lat="47.30473" lon="6.22623">
        <ele>488</ele>
        <time>2015-04-16T09:37:19Z</time>
      </trkpt>
      <trkpt lat="47.30472" lon="6.22613">
        <ele>493</ele>
        <time>2015-04-16T09:38:34Z</time>
      </trkpt>
      <trkpt lat="47.30473" lon="6.22608">
        <ele>499</ele>
        <time>2015-04-16T09:39:27Z</time>
      </trkpt>
      <trkpt lat="47.30483" lon="6.22604">
        <ele>496</ele>
        <time>2015-04-16T09:39:36Z</time>
      </trkpt>
      <trkpt lat="47.30491" lon="6.22617">
        <ele>489</ele>
        <time>2015-04-16T09:40:02Z</time>
      </trkpt>
      <trkpt lat="47.30495" lon="6.22608">
        <ele>476</ele>
        <time>2015-04-16T09:40:22Z</time>
      </trkpt>
      <trkpt lat="47.30506" lon="6.22582">
        <ele>470</ele>
        <time>2015-04-16T09:41:14Z</time>
      </trkpt>
      <trkpt lat="47.30513" lon="6.22571">
        <ele>468</ele>
        <time>2015-04-16T09:41:22Z</time>
      </trkpt>
      <trkpt lat="47.30514" lon="6.22558">
        <ele>466</ele>
        <time>2015-04-16T09:41:32Z</time>
      </trkpt>
      <trkpt lat="47.30518" lon="6.22546">
        <ele>464</ele>
        <time>2015-04-16T09:41:41Z</time>
      </trkpt>
      <trkpt lat="47.30523" lon="6.22534">
        <ele>463</ele>
        <time>2015-04-16T09:41:51Z</time>
      </trkpt>
      <trkpt lat="47.30534" lon="6.22528">
        <ele>465</ele>
        <time>2015-04-16T09:42:08Z</time>
      </trkpt>
      <trkpt lat="47.30544" lon="6.22525">
        <ele>466</ele>
        <time>2015-04-16T09:42:15Z</time>
      </trkpt>
      <trkpt lat="47.30554" lon="6.22526">
        <ele>466</ele>
        <time>2015-04-16T09:42:28Z</time>
      </trkpt>
      <trkpt lat="47.30562" lon="6.2252">
        <ele>466</ele>
        <time>2015-04-16T09:42:37Z</time>
      </trkpt>
      <trkpt lat="47.30568" lon="6.22508">
        <ele>465</ele>
        <time>2015-04-16T09:42:50Z</time>
      </trkpt>
      <trkpt lat="47.30577" lon="6.22504">
        <ele>465</ele>
        <time>2015-04-16T09:43:00Z</time>
      </trkpt>
      <trkpt lat="47.30588" lon="6.22512">
        <ele>465</ele>
        <time>2015-04-16T09:43:18Z</time>
      </trkpt>
      <trkpt lat="47.30598" lon="6.22514">
        <ele>464</ele>
        <time>2015-04-16T09:43:29Z</time>
      </trkpt>
      <trkpt lat="47.30607" lon="6.22515">
        <ele>465</ele>
        <time>2015-04-16T09:43:43Z</time>
      </trkpt>
      <trkpt lat="47.30627" lon="6.2252">
        <ele>467</ele>
        <time>2015-04-16T09:44:14Z</time>
      </trkpt>
      <trkpt lat="47.30634" lon="6.22529">
        <ele>468</ele>
        <time>2015-04-16T09:44:25Z</time>
      </trkpt>
      <trkpt lat="47.30643" lon="6.22533">
        <ele>468</ele>
        <time>2015-04-16T09:44:38Z</time>
      </trkpt>
      <trkpt lat="47.30652" lon="6.22527">
        <ele>470</ele>
        <time>2015-04-16T09:44:55Z</time>
      </trkpt>
      <trkpt lat="47.30658" lon="6.22517">
        <ele>471</ele>
        <time>2015-04-16T09:45:06Z</time>
      </trkpt>
      <trkpt lat="47.30664" lon="6.22507">
        <ele>471</ele>
        <time>2015-04-16T09:45:18Z</time>
      </trkpt>
      <trkpt lat="47.30666" lon="6.22493">
        <ele>472</ele>
        <time>2015-04-16T09:45:28Z</time>
      </trkpt>
      <trkpt lat="47.30673" lon="6.22484">
        <ele>472</ele>
        <time>2015-04-16T09:45:36Z</time>
      </trkpt>
      <trkpt lat="47.30673" lon="6.2247">
        <ele>473</ele>
        <time>2015-04-16T09:45:47Z</time>
      </trkpt>
      <trkpt lat="47.30681" lon="6.2246">
        <ele>473</ele>
        <time>2015-04-16T09:46:00Z</time>
      </trkpt>
      <trkpt lat="47.30685" lon="6.22447">
        <ele>474</ele>
        <time>2015-04-16T09:46:11Z</time>
      </trkpt>
      <trkpt lat="47.30685" lon="6.22433">
        <ele>474</ele>
        <time>2015-04-16T09:46:20Z</time>
      </trkpt>
      <trkpt lat="47.30685" lon="6.2242">
        <ele>476</ele>
        <time>2015-04-16T09:46:37Z</time>
      </trkpt>
      <trkpt lat="47.30686" lon="6.22406">
        <ele>476</ele>
        <time>2015-04-16T09:46:45Z</time>
      </trkpt>
      <trkpt lat="47.30683" lon="6.22392">
        <ele>476</ele>
        <time>2015-04-16T09:46:52Z</time>
      </trkpt>
      <trkpt lat="47.30688" lon="6.22377">
        <ele>476</ele>
        <time>2015-04-16T09:47:16Z</time>
      </trkpt>
      <trkpt lat="47.30684" lon="6.22364">
        <ele>476</ele>
        <time>2015-04-16T09:47:26Z</time>
      </trkpt>
      <trkpt lat="47.30681" lon="6.22358">
        <ele>476</ele>
        <time>2015-04-16T09:47:46Z</time>
      </trkpt>
      <trkpt lat="47.30682" lon="6.22343">
        <ele>473</ele>
        <time>2015-04-16T09:48:05Z</time>
      </trkpt>
      <trkpt lat="47.30678" lon="6.22331">
        <ele>473</ele>
        <time>2015-04-16T09:48:15Z</time>
      </trkpt>
      <trkpt lat="47.30672" lon="6.22301">
        <ele>471</ele>
        <time>2015-04-16T09:48:46Z</time>
      </trkpt>
      <trkpt lat="47.30675" lon="6.22287">
        <ele>469</ele>
        <time>2015-04-16T09:48:59Z</time>
      </trkpt>
      <trkpt lat="47.30675" lon="6.22272">
        <ele>468</ele>
        <time>2015-04-16T09:49:07Z</time>
      </trkpt>
      <trkpt lat="47.30673" lon="6.22258">
        <ele>465</ele>
        <time>2015-04-16T09:49:16Z</time>
      </trkpt>
      <trkpt lat="47.30674" lon="6.22245">
        <ele>464</ele>
        <time>2015-04-16T09:49:23Z</time>
      </trkpt>
      <trkpt lat="47.30677" lon="6.22232">
        <ele>463</ele>
        <time>2015-04-16T09:49:35Z</time>
      </trkpt>
      <trkpt lat="47.30674" lon="6.22203">
        <ele>460</ele>
        <time>2015-04-16T09:49:57Z</time>
      </trkpt>
      <trkpt lat="47.30675" lon="6.2219">
        <ele>460</ele>
        <time>2015-04-16T09:50:05Z</time>
      </trkpt>
      <trkpt lat="47.30678" lon="6.22148">
        <ele>457</ele>
        <time>2015-04-16T09:50:37Z</time>
      </trkpt>
      <trkpt lat="47.3069" lon="6.22111">
        <ele>454</ele>
        <time>2015-04-16T09:51:12Z</time>
      </trkpt>
      <trkpt lat="47.30694" lon="6.22099">
        <ele>453</ele>
        <time>2015-04-16T09:51:29Z</time>
      </trkpt>
      <trkpt lat="47.30692" lon="6.22055">
        <ele>454</ele>
        <time>2015-04-16T09:52:10Z</time>
      </trkpt>
      <trkpt lat="47.30698" lon="6.22015">
        <ele>458</ele>
        <time>2015-04-16T09:52:38Z</time>
      </trkpt>
      <trkpt lat="47.30703" lon="6.22004">
        <ele>458</ele>
        <time>2015-04-16T09:52:48Z</time>
      </trkpt>
      <trkpt lat="47.30708" lon="6.21992">
        <ele>460</ele>
        <time>2015-04-16T09:53:01Z</time>
      </trkpt>
      <trkpt lat="47.30712" lon="6.21965">
        <ele>461</ele>
        <time>2015-04-16T09:53:22Z</time>
      </trkpt>
      <trkpt lat="47.30722" lon="6.21962">
        <ele>461</ele>
        <time>2015-04-16T09:53:33Z</time>
      </trkpt>
      <trkpt lat="47.30721" lon="6.21965">
        <ele>465</ele>
        <time>2015-04-16T09:55:30Z</time>
      </trkpt>
      <trkpt lat="47.3072" lon="6.21973">
        <ele>464</ele>
        <time>2015-04-16T09:55:35Z</time>
      </trkpt>
      <trkpt lat="47.30721" lon="6.21981">
        <ele>465</ele>
        <time>2015-04-16T09:55:40Z</time>
      </trkpt>
      <trkpt lat="47.30721" lon="6.21988">
        <ele>466</ele>
        <time>2015-04-16T09:55:45Z</time>
      </trkpt>
      <trkpt lat="47.30723" lon="6.21996">
        <ele>466</ele>
        <time>2015-04-16T09:55:49Z</time>
      </trkpt>
      <trkpt lat="47.30726" lon="6.22">
        <ele>467</ele>
        <time>2015-04-16T09:55:54Z</time>
      </trkpt>
      <trkpt lat="47.30731" lon="6.22014">
        <ele>468</ele>
        <time>2015-04-16T09:56:04Z</time>
      </trkpt>
      <trkpt lat="47.30733" lon="6.2202">
        <ele>470</ele>
        <time>2015-04-16T09:56:10Z</time>
      </trkpt>
      <trkpt lat="47.30739" lon="6.22059">
        <ele>470</ele>
        <time>2015-04-16T09:56:43Z</time>
      </trkpt>
      <trkpt lat="47.30739" lon="6.22073">
        <ele>469</ele>
        <time>2015-04-16T09:56:53Z</time>
      </trkpt>
      <trkpt lat="47.30748" lon="6.22113">
        <ele>475</ele>
        <time>2015-04-16T09:57:27Z</time>
      </trkpt>
      <trkpt lat="47.30753" lon="6.22153">
        <ele>482</ele>
        <time>2015-04-16T09:58:01Z</time>
      </trkpt>
      <trkpt lat="47.30755" lon="6.22169">
        <ele>482</ele>
        <time>2015-04-16T09:58:17Z</time>
      </trkpt>
      <trkpt lat="47.30759" lon="6.22202">
        <ele>489</ele>
        <time>2015-04-16T09:58:52Z</time>
      </trkpt>
      <trkpt lat="47.3076" lon="6.22242">
        <ele>494</ele>
        <time>2015-04-16T09:59:23Z</time>
      </trkpt>
      <trkpt lat="47.30763" lon="6.22269">
        <ele>494</ele>
        <time>2015-04-16T09:59:48Z</time>
      </trkpt>
      <trkpt lat="47.30768" lon="6.2228">
        <ele>494</ele>
        <time>2015-04-16T10:00:01Z</time>
      </trkpt>
      <trkpt lat="47.30766" lon="6.22311">
        <ele>499</ele>
        <time>2015-04-16T10:00:31Z</time>
      </trkpt>
      <trkpt lat="47.30764" lon="6.22325">
        <ele>501</ele>
        <time>2015-04-16T10:00:43Z</time>
      </trkpt>
      <trkpt lat="47.30768" lon="6.22337">
        <ele>504</ele>
        <time>2015-04-16T10:00:52Z</time>
      </trkpt>
      <trkpt lat="47.30764" lon="6.22346">
        <ele>507</ele>
        <time>2015-04-16T10:01:13Z</time>
      </trkpt>
      <trkpt lat="47.30765" lon="6.2236">
        <ele>508</ele>
        <time>2015-04-16T10:01:28Z</time>
      </trkpt>
      <trkpt lat="47.30764" lon="6.22373">
        <ele>511</ele>
        <time>2015-04-16T10:01:44Z</time>
      </trkpt>
      <trkpt lat="47.30764" lon="6.22386">
        <ele>512</ele>
        <time>2015-04-16T10:01:53Z</time>
      </trkpt>
      <trkpt lat="47.30765" lon="6.22418">
        <ele>519</ele>
        <time>2015-04-16T10:02:29Z</time>
      </trkpt>
      <trkpt lat="47.30765" lon="6.2246">
        <ele>524</ele>
        <time>2015-04-16T10:03:00Z</time>
      </trkpt>
      <trkpt lat="47.30771" lon="6.22472">
        <ele>526</ele>
        <time>2015-04-16T10:03:11Z</time>
      </trkpt>
      <trkpt lat="47.30773" lon="6.225">
        <ele>527</ele>
        <time>2015-04-16T10:03:34Z</time>
      </trkpt>
      <trkpt lat="47.30776" lon="6.22513">
        <ele>527</ele>
        <time>2015-04-16T10:03:44Z</time>
      </trkpt>
      <trkpt lat="47.30781" lon="6.22555">
        <ele>531</ele>
        <time>2015-04-16T10:04:17Z</time>
      </trkpt>
      <trkpt lat="47.30775" lon="6.22563">
        <ele>535</ele>
        <time>2015-04-16T10:05:05Z</time>
      </trkpt>
      <trkpt lat="47.30774" lon="6.2257">
        <ele>535</ele>
        <time>2015-04-16T10:05:50Z</time>
      </trkpt>
      <trkpt lat="47.3077" lon="6.22581">
        <ele>536</ele>
        <time>2015-04-16T10:06:04Z</time>
      </trkpt>
      <trkpt lat="47.30763" lon="6.22598">
        <ele>547</ele>
        <time>2015-04-16T10:06:42Z</time>
      </trkpt>
      <trkpt lat="47.30766" lon="6.22596">
        <ele>549</ele>
        <time>2015-04-16T10:07:38Z</time>
      </trkpt>
      <trkpt lat="47.30771" lon="6.22603">
        <ele>549</ele>
        <time>2015-04-16T10:08:21Z</time>
      </trkpt>
      <trkpt lat="47.30772" lon="6.22609">
        <ele>548</ele>
        <time>2015-04-16T10:08:39Z</time>
      </trkpt>
      <trkpt lat="47.30782" lon="6.22632">
        <ele>544</ele>
        <time>2015-04-16T10:09:05Z</time>
      </trkpt>
      <trkpt lat="47.30786" lon="6.22637">
        <ele>545</ele>
        <time>2015-04-16T10:09:13Z</time>
      </trkpt>
      <trkpt lat="47.30778" lon="6.22635">
        <ele>544</ele>
        <time>2015-04-16T10:09:38Z</time>
      </trkpt>
      <trkpt lat="47.30778" lon="6.22634">
        <ele>543</ele>
        <time>2015-04-16T10:10:29Z</time>
      </trkpt>
      <trkpt lat="47.30781" lon="6.22631">
        <ele>545</ele>
        <time>2015-04-16T10:11:07Z</time>
      </trkpt>
      <trkpt lat="47.30779" lon="6.22633">
        <ele>545</ele>
        <time>2015-04-16T10:11:41Z</time>
      </trkpt>
      <trkpt lat="47.30772" lon="6.2264">
        <ele>545</ele>
        <time>2015-04-16T10:12:39Z</time>
      </trkpt>
      <trkpt lat="47.30771" lon="6.2264">
        <ele>546</ele>
        <time>2015-04-16T10:12:58Z</time>
      </trkpt>
      <trkpt lat="47.30773" lon="6.22647">
        <ele>545</ele>
        <time>2015-04-16T10:13:06Z</time>
      </trkpt>
      <trkpt lat="47.30775" lon="6.22636">
        <ele>545</ele>
        <time>2015-04-16T10:14:44Z</time>
      </trkpt>
      <trkpt lat="47.3077" lon="6.22637">
        <ele>545</ele>
        <time>2015-04-16T10:15:29Z</time>
      </trkpt>
      <trkpt lat="47.30773" lon="6.2264">
        <ele>545</ele>
        <time>2015-04-16T10:15:40Z</time>
      </trkpt>
      <trkpt lat="47.30774" lon="6.22644">
        <ele>549</ele>
        <time>2015-04-16T10:19:22Z</time>
      </trkpt>
      <trkpt lat="47.30781" lon="6.22649">
        <ele>549</ele>
        <time>2015-04-16T10:19:49Z</time>
      </trkpt>
      <trkpt lat="47.30776" lon="6.22648">
        <ele>555</ele>
        <time>2015-04-16T10:22:31Z</time>
      </trkpt>
      <trkpt lat="47.30779" lon="6.2264">
        <ele>556</ele>
        <time>2015-04-16T10:24:38Z</time>
      </trkpt>
      <trkpt lat="47.30778" lon="6.22678">
        <ele>544</ele>
        <time>2015-04-16T11:02:43Z</time>
      </trkpt>
      <trkpt lat="47.30786" lon="6.22702">
        <ele>539</ele>
        <time>2015-04-16T11:03:03Z</time>
      </trkpt>
      <trkpt lat="47.30794" lon="6.22709">
        <ele>539</ele>
        <time>2015-04-16T11:03:12Z</time>
      </trkpt>
      <trkpt lat="47.30795" lon="6.22724">
        <ele>538</ele>
        <time>2015-04-16T11:03:21Z</time>
      </trkpt>
      <trkpt lat="47.30795" lon="6.22737">
        <ele>536</ele>
        <time>2015-04-16T11:03:29Z</time>
      </trkpt>
      <trkpt lat="47.30808" lon="6.22773">
        <ele>528</ele>
        <time>2015-04-16T11:04:03Z</time>
      </trkpt>
      <trkpt lat="47.30822" lon="6.22792">
        <ele>522</ele>
        <time>2015-04-16T11:04:25Z</time>
      </trkpt>
      <trkpt lat="47.30831" lon="6.22847">
        <ele>515</ele>
        <time>2015-04-16T11:05:05Z</time>
      </trkpt>
      <trkpt lat="47.30837" lon="6.22873">
        <ele>511</ele>
        <time>2015-04-16T11:05:23Z</time>
      </trkpt>
      <trkpt lat="47.30837" lon="6.22913">
        <ele>499</ele>
        <time>2015-04-16T11:06:00Z</time>
      </trkpt>
      <trkpt lat="47.30833" lon="6.22926">
        <ele>498</ele>
        <time>2015-04-16T11:06:12Z</time>
      </trkpt>
      <trkpt lat="47.30824" lon="6.22931">
        <ele>496</ele>
        <time>2015-04-16T11:06:22Z</time>
      </trkpt>
      <trkpt lat="47.30819" lon="6.22944">
        <ele>494</ele>
        <time>2015-04-16T11:06:39Z</time>
      </trkpt>
      <trkpt lat="47.30823" lon="6.22957">
        <ele>491</ele>
        <time>2015-04-16T11:06:49Z</time>
      </trkpt>
      <trkpt lat="47.30827" lon="6.22969">
        <ele>490</ele>
        <time>2015-04-16T11:06:55Z</time>
      </trkpt>
      <trkpt lat="47.30828" lon="6.23024">
        <ele>482</ele>
        <time>2015-04-16T11:07:30Z</time>
      </trkpt>
      <trkpt lat="47.30836" lon="6.23049">
        <ele>479</ele>
        <time>2015-04-16T11:07:53Z</time>
      </trkpt>
      <trkpt lat="47.30832" lon="6.23106">
        <ele>471</ele>
        <time>2015-04-16T11:08:31Z</time>
      </trkpt>
      <trkpt lat="47.30836" lon="6.23119">
        <ele>469</ele>
        <time>2015-04-16T11:08:41Z</time>
      </trkpt>
      <trkpt lat="47.30836" lon="6.23132">
        <ele>469</ele>
        <time>2015-04-16T11:08:47Z</time>
      </trkpt>
      <trkpt lat="47.30837" lon="6.23145">
        <ele>467</ele>
        <time>2015-04-16T11:08:57Z</time>
      </trkpt>
      <trkpt lat="47.30841" lon="6.23159">
        <ele>466</ele>
        <time>2015-04-16T11:09:12Z</time>
      </trkpt>
      <trkpt lat="47.30841" lon="6.232">
        <ele>459</ele>
        <time>2015-04-16T11:09:41Z</time>
      </trkpt>
      <trkpt lat="47.30848" lon="6.23225">
        <ele>457</ele>
        <time>2015-04-16T11:09:59Z</time>
      </trkpt>
      <trkpt lat="47.3085" lon="6.23239">
        <ele>457</ele>
        <time>2015-04-16T11:10:08Z</time>
      </trkpt>
      <trkpt lat="47.30852" lon="6.23252">
        <ele>457</ele>
        <time>2015-04-16T11:10:19Z</time>
      </trkpt>
      <trkpt lat="47.30867" lon="6.23288">
        <ele>453</ele>
        <time>2015-04-16T11:10:47Z</time>
      </trkpt>
      <trkpt lat="47.30867" lon="6.23301">
        <ele>453</ele>
        <time>2015-04-16T11:10:56Z</time>
      </trkpt>
      <trkpt lat="47.30872" lon="6.23313">
        <ele>452</ele>
        <time>2015-04-16T11:11:07Z</time>
      </trkpt>
      <trkpt lat="47.3088" lon="6.23352">
        <ele>444</ele>
        <time>2015-04-16T11:11:33Z</time>
      </trkpt>
      <trkpt lat="47.30883" lon="6.23397">
        <ele>439</ele>
        <time>2015-04-16T11:12:08Z</time>
      </trkpt>
      <trkpt lat="47.30892" lon="6.23451">
        <ele>433</ele>
        <time>2015-04-16T11:12:47Z</time>
      </trkpt>
      <trkpt lat="47.30896" lon="6.23464">
        <ele>428</ele>
        <time>2015-04-16T11:13:03Z</time>
      </trkpt>
      <trkpt lat="47.30894" lon="6.23476">
        <ele>428</ele>
        <time>2015-04-16T11:13:09Z</time>
      </trkpt>
      <trkpt lat="47.30896" lon="6.2349">
        <ele>427</ele>
        <time>2015-04-16T11:13:19Z</time>
      </trkpt>
      <trkpt lat="47.30902" lon="6.23502">
        <ele>426</ele>
        <time>2015-04-16T11:13:29Z</time>
      </trkpt>
      <trkpt lat="47.30907" lon="6.23514">
        <ele>424</ele>
        <time>2015-04-16T11:13:39Z</time>
      </trkpt>
      <trkpt lat="47.30907" lon="6.23527">
        <ele>424</ele>
        <time>2015-04-16T11:13:48Z</time>
      </trkpt>
      <trkpt lat="47.30911" lon="6.2354">
        <ele>422</ele>
        <time>2015-04-16T11:13:57Z</time>
      </trkpt>
      <trkpt lat="47.30916" lon="6.2358">
        <ele>418</ele>
        <time>2015-04-16T11:14:31Z</time>
      </trkpt>
      <trkpt lat="47.30933" lon="6.23632">
        <ele>411</ele>
        <time>2015-04-16T11:15:08Z</time>
      </trkpt>
      <trkpt lat="47.30934" lon="6.23645">
        <ele>407</ele>
        <time>2015-04-16T11:15:21Z</time>
      </trkpt>
      <trkpt lat="47.3094" lon="6.23656">
        <ele>406</ele>
        <time>2015-04-16T11:15:33Z</time>
      </trkpt>
      <trkpt lat="47.30942" lon="6.23685">
        <ele>403</ele>
        <time>2015-04-16T11:15:50Z</time>
      </trkpt>
      <trkpt lat="47.30951" lon="6.2369">
        <ele>403</ele>
        <time>2015-04-16T11:16:01Z</time>
      </trkpt>
      <trkpt lat="47.30952" lon="6.23703">
        <ele>403</ele>
        <time>2015-04-16T11:16:09Z</time>
      </trkpt>
      <trkpt lat="47.30952" lon="6.23717">
        <ele>402</ele>
        <time>2015-04-16T11:16:16Z</time>
      </trkpt>
      <trkpt lat="47.30958" lon="6.23727">
        <ele>401</ele>
        <time>2015-04-16T11:16:26Z</time>
      </trkpt>
      <trkpt lat="47.30961" lon="6.23755">
        <ele>398</ele>
        <time>2015-04-16T11:16:46Z</time>
      </trkpt>
      <trkpt lat="47.30961" lon="6.23783">
        <ele>398</ele>
        <time>2015-04-16T11:17:00Z</time>
      </trkpt>
      <trkpt lat="47.30955" lon="6.23808">
        <ele>397</ele>
        <time>2015-04-16T11:17:26Z</time>
      </trkpt>
      <trkpt lat="47.30962" lon="6.23818">
        <ele>398</ele>
        <time>2015-04-16T11:17:43Z</time>
      </trkpt>
      <trkpt lat="47.3096" lon="6.23832">
        <ele>399</ele>
        <time>2015-04-16T11:18:03Z</time>
      </trkpt>
      <trkpt lat="47.30967" lon="6.23842">
        <ele>397</ele>
        <time>2015-04-16T11:18:14Z</time>
      </trkpt>
      <trkpt lat="47.30968" lon="6.23866">
        <ele>391</ele>
        <time>2015-04-16T11:18:38Z</time>
      </trkpt>
      <trkpt lat="47.30975" lon="6.23876">
        <ele>388</ele>
        <time>2015-04-16T11:18:57Z</time>
      </trkpt>
      <trkpt lat="47.30983" lon="6.23885">
        <ele>386</ele>
        <time>2015-04-16T11:19:09Z</time>
      </trkpt>
      <trkpt lat="47.30984" lon="6.239">
        <ele>383</ele>
        <time>2015-04-16T11:19:17Z</time>
      </trkpt>
      <trkpt lat="47.30995" lon="6.23924">
        <ele>379</ele>
        <time>2015-04-16T11:19:37Z</time>
      </trkpt>
      <trkpt lat="47.30997" lon="6.23966">
        <ele>375</ele>
        <time>2015-04-16T11:20:02Z</time>
      </trkpt>
      <trkpt lat="47.31004" lon="6.23974">
        <ele>372</ele>
        <time>2015-04-16T11:20:18Z</time>
      </trkpt>
      <trkpt lat="47.31003" lon="6.23988">
        <ele>372</ele>
        <time>2015-04-16T11:20:36Z</time>
      </trkpt>
      <trkpt lat="47.31004" lon="6.24002">
        <ele>371</ele>
        <time>2015-04-16T11:20:46Z</time>
      </trkpt>
      <trkpt lat="47.31009" lon="6.24014">
        <ele>371</ele>
        <time>2015-04-16T11:20:56Z</time>
      </trkpt>
      <trkpt lat="47.31021" lon="6.24083">
        <ele>363</ele>
        <time>2015-04-16T11:21:32Z</time>
      </trkpt>
      <trkpt lat="47.31026" lon="6.24093">
        <ele>362</ele>
        <time>2015-04-16T11:21:38Z</time>
      </trkpt>
      <trkpt lat="47.3104" lon="6.24112">
        <ele>361</ele>
        <time>2015-04-16T11:21:54Z</time>
      </trkpt>
      <trkpt lat="47.3104" lon="6.24127">
        <ele>362</ele>
        <time>2015-04-16T11:22:02Z</time>
      </trkpt>
      <trkpt lat="47.31044" lon="6.2414">
        <ele>362</ele>
        <time>2015-04-16T11:22:11Z</time>
      </trkpt>
      <trkpt lat="47.31048" lon="6.24152">
        <ele>361</ele>
        <time>2015-04-16T11:22:18Z</time>
      </trkpt>
      <trkpt lat="47.31047" lon="6.24167">
        <ele>360</ele>
        <time>2015-04-16T11:22:26Z</time>
      </trkpt>
      <trkpt lat="47.31057" lon="6.24219">
        <ele>355</ele>
        <time>2015-04-16T11:23:00Z</time>
      </trkpt>
      <trkpt lat="47.31058" lon="6.24234">
        <ele>354</ele>
        <time>2015-04-16T11:23:09Z</time>
      </trkpt>
      <trkpt lat="47.31061" lon="6.24248">
        <ele>353</ele>
        <time>2015-04-16T11:23:16Z</time>
      </trkpt>
      <trkpt lat="47.31076" lon="6.243">
        <ele>349</ele>
        <time>2015-04-16T11:23:51Z</time>
      </trkpt>
      <trkpt lat="47.31078" lon="6.24313">
        <ele>347</ele>
        <time>2015-04-16T11:24:00Z</time>
      </trkpt>
      <trkpt lat="47.31089" lon="6.24334">
        <ele>346</ele>
        <time>2015-04-16T11:24:18Z</time>
      </trkpt>
      <trkpt lat="47.31094" lon="6.24349">
        <ele>345</ele>
        <time>2015-04-16T11:24:48Z</time>
      </trkpt>
      <trkpt lat="47.31102" lon="6.24363">
        <ele>342</ele>
        <time>2015-04-16T11:25:07Z</time>
      </trkpt>
      <trkpt lat="47.31114" lon="6.24385">
        <ele>341</ele>
        <time>2015-04-16T11:25:24Z</time>
      </trkpt>
      <trkpt lat="47.31128" lon="6.24402">
        <ele>341</ele>
        <time>2015-04-16T11:25:34Z</time>
      </trkpt>
      <trkpt lat="47.31133" lon="6.24414">
        <ele>342</ele>
        <time>2015-04-16T11:25:41Z</time>
      </trkpt>
      <trkpt lat="47.31138" lon="6.24426">
        <ele>342</ele>
        <time>2015-04-16T11:25:52Z</time>
      </trkpt>
      <trkpt lat="47.31146" lon="6.24435">
        <ele>342</ele>
        <time>2015-04-16T11:25:59Z</time>
      </trkpt>
      <trkpt lat="47.31149" lon="6.24448">
        <ele>340</ele>
        <time>2015-04-16T11:26:10Z</time>
      </trkpt>
      <trkpt lat="47.31155" lon="6.24458">
        <ele>337</ele>
        <time>2015-04-16T11:26:20Z</time>
      </trkpt>
      <trkpt lat="47.31163" lon="6.24449">
        <ele>334</ele>
        <time>2015-04-16T11:26:31Z</time>
      </trkpt>
      <trkpt lat="47.31168" lon="6.24444">
        <ele>331</ele>
        <time>2015-04-16T11:26:45Z</time>
      </trkpt>
      <trkpt lat="47.3117" lon="6.24457">
        <ele>326</ele>
        <time>2015-04-16T11:26:57Z</time>
      </trkpt>
      <trkpt lat="47.31172" lon="6.2447">
        <ele>324</ele>
        <time>2015-04-16T11:27:09Z</time>
      </trkpt>
      <trkpt lat="47.31178" lon="6.24468">
        <ele>323</ele>
        <time>2015-04-16T11:27:43Z</time>
      </trkpt>
      <trkpt lat="47.31176" lon="6.24454">
        <ele>324</ele>
        <time>2015-04-16T11:27:56Z</time>
      </trkpt>
      <trkpt lat="47.31175" lon="6.24441">
        <ele>327</ele>
        <time>2015-04-16T11:28:10Z</time>
      </trkpt>
      <trkpt lat="47.31171" lon="6.24435">
        <ele>328</ele>
        <time>2015-04-16T11:29:00Z</time>
      </trkpt>
      <trkpt lat="47.3118" lon="6.24426">
        <ele>327</ele>
        <time>2015-04-16T11:29:18Z</time>
      </trkpt>
      <trkpt lat="47.31189" lon="6.24424">
        <ele>327</ele>
        <time>2015-04-16T11:29:27Z</time>
      </trkpt>
      <trkpt lat="47.31207" lon="6.24429">
        <ele>329</ele>
        <time>2015-04-16T11:29:42Z</time>
      </trkpt>
      <trkpt lat="47.31227" lon="6.24425">
        <ele>330</ele>
        <time>2015-04-16T11:29:59Z</time>
      </trkpt>
      <trkpt lat="47.31236" lon="6.24422">
        <ele>329</ele>
        <time>2015-04-16T11:30:06Z</time>
      </trkpt>
      <trkpt lat="47.31244" lon="6.24414">
        <ele>328</ele>
        <time>2015-04-16T11:30:13Z</time>
      </trkpt>
      <trkpt lat="47.31261" lon="6.24402">
        <ele>329</ele>
        <time>2015-04-16T11:30:30Z</time>
      </trkpt>
      <trkpt lat="47.3127" lon="6.24405">
        <ele>328</ele>
        <time>2015-04-16T11:30:42Z</time>
      </trkpt>
      <trkpt lat="47.31279" lon="6.24408">
        <ele>329</ele>
        <time>2015-04-16T11:30:51Z</time>
      </trkpt>
      <trkpt lat="47.31287" lon="6.24415">
        <ele>328</ele>
        <time>2015-04-16T11:30:58Z</time>
      </trkpt>
      <trkpt lat="47.31296" lon="6.24415">
        <ele>327</ele>
        <time>2015-04-16T11:31:06Z</time>
      </trkpt>
      <trkpt lat="47.31305" lon="6.2442">
        <ele>327</ele>
        <time>2015-04-16T11:31:16Z</time>
      </trkpt>
      <trkpt lat="47.31314" lon="6.24415">
        <ele>326</ele>
        <time>2015-04-16T11:31:31Z</time>
      </trkpt>
      <trkpt lat="47.31322" lon="6.24423">
        <ele>326</ele>
        <time>2015-04-16T11:31:49Z</time>
      </trkpt>
      <trkpt lat="47.31322" lon="6.24426">
        <ele>327</ele>
        <time>2015-04-16T11:32:21Z</time>
      </trkpt>
      <trkpt lat="47.31329" lon="6.2442">
        <ele>329</ele>
        <time>2015-04-16T11:35:58Z</time>
      </trkpt>
      <trkpt lat="47.31335" lon="6.2441">
        <ele>328</ele>
        <time>2015-04-16T11:36:32Z</time>
      </trkpt>
      <trkpt lat="47.31339" lon="6.24404">
        <ele>327</ele>
        <time>2015-04-16T11:36:36Z</time>
      </trkpt>
      <trkpt lat="47.3134" lon="6.24397">
        <ele>326</ele>
        <time>2015-04-16T11:36:42Z</time>
      </trkpt>
      <trkpt lat="47.31342" lon="6.24391">
        <ele>326</ele>
        <time>2015-04-16T11:36:46Z</time>
      </trkpt>
      <trkpt lat="47.31351" lon="6.24384">
        <ele>326</ele>
        <time>2015-04-16T11:36:57Z</time>
      </trkpt>
      <trkpt lat="47.31354" lon="6.24378">
        <ele>326</ele>
        <time>2015-04-16T11:37:03Z</time>
      </trkpt>
      <trkpt lat="47.31353" lon="6.24371">
        <ele>325</ele>
        <time>2015-04-16T11:37:09Z</time>
      </trkpt>
      <trkpt lat="47.31355" lon="6.24364">
        <ele>325</ele>
        <time>2015-04-16T11:37:18Z</time>
      </trkpt>
      <trkpt lat="47.31358" lon="6.24358">
        <ele>325</ele>
        <time>2015-04-16T11:37:26Z</time>
      </trkpt>
      <trkpt lat="47.31376" lon="6.24309">
        <ele>323</ele>
        <time>2015-04-16T11:37:59Z</time>
      </trkpt>
      <trkpt lat="47.31379" lon="6.24294">
        <ele>323</ele>
        <time>2015-04-16T11:38:06Z</time>
      </trkpt>
      <trkpt lat="47.31396" lon="6.24243">
        <ele>327</ele>
        <time>2015-04-16T11:38:43Z</time>
      </trkpt>
      <trkpt lat="47.31419" lon="6.24219">
        <ele>328</ele>
        <time>2015-04-16T11:39:08Z</time>
      </trkpt>
      <trkpt lat="47.31426" lon="6.24211">
        <ele>327</ele>
        <time>2015-04-16T11:39:17Z</time>
      </trkpt>
      <trkpt lat="47.31446" lon="6.24207">
        <ele>328</ele>
        <time>2015-04-16T11:39:30Z</time>
      </trkpt>
      <trkpt lat="47.31455" lon="6.24207">
        <ele>329</ele>
        <time>2015-04-16T11:39:36Z</time>
      </trkpt>
      <trkpt lat="47.31463" lon="6.24202">
        <ele>329</ele>
        <time>2015-04-16T11:39:44Z</time>
      </trkpt>
      <trkpt lat="47.31473" lon="6.242">
        <ele>330</ele>
        <time>2015-04-16T11:39:52Z</time>
      </trkpt>
      <trkpt lat="47.31482" lon="6.24198">
        <ele>329</ele>
        <time>2015-04-16T11:40:00Z</time>
      </trkpt>
      <trkpt lat="47.31492" lon="6.24196">
        <ele>328</ele>
        <time>2015-04-16T11:40:08Z</time>
      </trkpt>
      <trkpt lat="47.31501" lon="6.242">
        <ele>328</ele>
        <time>2015-04-16T11:40:13Z</time>
      </trkpt>
      <trkpt lat="47.31507" lon="6.24202">
        <ele>328</ele>
        <time>2015-04-16T11:40:18Z</time>
      </trkpt>
      <trkpt lat="47.31516" lon="6.24194">
        <ele>329</ele>
        <time>2015-04-16T11:40:28Z</time>
      </trkpt>
      <trkpt lat="47.31553" lon="6.24188">
        <ele>330</ele>
        <time>2015-04-16T11:40:58Z</time>
      </trkpt>
      <trkpt lat="47.31563" lon="6.24189">
        <ele>329</ele>
        <time>2015-04-16T11:41:05Z</time>
      </trkpt>
      <trkpt lat="47.31583" lon="6.24186">
        <ele>331</ele>
        <time>2015-04-16T11:41:19Z</time>
      </trkpt>
      <trkpt lat="47.3163" lon="6.24178">
        <ele>333</ele>
        <time>2015-04-16T11:41:56Z</time>
      </trkpt>
      <trkpt lat="47.31647" lon="6.24179">
        <ele>332</ele>
        <time>2015-04-16T11:42:07Z</time>
      </trkpt>
      <trkpt lat="47.31655" lon="6.24173">
        <ele>334</ele>
        <time>2015-04-16T11:42:16Z</time>
      </trkpt>
      <trkpt lat="47.31675" lon="6.24172">
        <ele>335</ele>
        <time>2015-04-16T11:42:31Z</time>
      </trkpt>
      <trkpt lat="47.31684" lon="6.24169">
        <ele>335</ele>
        <time>2015-04-16T11:42:38Z</time>
      </trkpt>
      <trkpt lat="47.31694" lon="6.24167">
        <ele>334</ele>
        <time>2015-04-16T11:42:47Z</time>
      </trkpt>
      <trkpt lat="47.31704" lon="6.24164">
        <ele>335</ele>
        <time>2015-04-16T11:42:55Z</time>
      </trkpt>
      <trkpt lat="47.31713" lon="6.24158">
        <ele>337</ele>
        <time>2015-04-16T11:43:04Z</time>
      </trkpt>
      <trkpt lat="47.31722" lon="6.24155">
        <ele>337</ele>
        <time>2015-04-16T11:43:14Z</time>
      </trkpt>
      <trkpt lat="47.31731" lon="6.2415">
        <ele>337</ele>
        <time>2015-04-16T11:43:22Z</time>
      </trkpt>
      <trkpt lat="47.31739" lon="6.24147">
        <ele>337</ele>
        <time>2015-04-16T11:43:28Z</time>
      </trkpt>
      <trkpt lat="47.31775" lon="6.24127">
        <ele>341</ele>
        <time>2015-04-16T11:44:01Z</time>
      </trkpt>
      <trkpt lat="47.3178" lon="6.24116">
        <ele>342</ele>
        <time>2015-04-16T11:44:12Z</time>
      </trkpt>
      <trkpt lat="47.3178" lon="6.24102">
        <ele>344</ele>
        <time>2015-04-16T11:44:23Z</time>
      </trkpt>
      <trkpt lat="47.31774" lon="6.24062">
        <ele>348</ele>
        <time>2015-04-16T11:44:47Z</time>
      </trkpt>
      <trkpt lat="47.31779" lon="6.24046">
        <ele>349</ele>
        <time>2015-04-16T11:45:15Z</time>
      </trkpt>
      <trkpt lat="47.31778" lon="6.24033">
        <ele>350</ele>
        <time>2015-04-16T11:45:24Z</time>
      </trkpt>
      <trkpt lat="47.31776" lon="6.2402">
        <ele>350</ele>
        <time>2015-04-16T11:45:33Z</time>
      </trkpt>
      <trkpt lat="47.31771" lon="6.23993">
        <ele>348</ele>
        <time>2015-04-16T11:45:48Z</time>
      </trkpt>
      <trkpt lat="47.31763" lon="6.23936">
        <ele>351</ele>
        <time>2015-04-16T11:46:21Z</time>
      </trkpt>
      <trkpt lat="47.31754" lon="6.23882">
        <ele>351</ele>
        <time>2015-04-16T11:46:54Z</time>
      </trkpt>
      <trkpt lat="47.31749" lon="6.23854">
        <ele>350</ele>
        <time>2015-04-16T11:47:13Z</time>
      </trkpt>
      <trkpt lat="47.31752" lon="6.2384">
        <ele>349</ele>
        <time>2015-04-16T11:47:23Z</time>
      </trkpt>
      <trkpt lat="47.31749" lon="6.23817">
        <ele>349</ele>
        <time>2015-04-16T11:47:31Z</time>
      </trkpt>
      <trkpt lat="47.31734" lon="6.23755">
        <ele>346</ele>
        <time>2015-04-16T11:48:07Z</time>
      </trkpt>
      <trkpt lat="47.31728" lon="6.23733">
        <ele>344</ele>
        <time>2015-04-16T11:48:23Z</time>
      </trkpt>
      <trkpt lat="47.31721" lon="6.23677">
        <ele>342</ele>
        <time>2015-04-16T11:48:49Z</time>
      </trkpt>
      <trkpt lat="47.31715" lon="6.2362">
        <ele>343</ele>
        <time>2015-04-16T11:49:18Z</time>
      </trkpt>
      <trkpt lat="47.31711" lon="6.23606">
        <ele>342</ele>
        <time>2015-04-16T11:49:26Z</time>
      </trkpt>
      <trkpt lat="47.3171" lon="6.23592">
        <ele>341</ele>
        <time>2015-04-16T11:49:33Z</time>
      </trkpt>
      <trkpt lat="47.31706" lon="6.23564">
        <ele>342</ele>
        <time>2015-04-16T11:49:49Z</time>
      </trkpt>
      <trkpt lat="47.31698" lon="6.23524">
        <ele>341</ele>
        <time>2015-04-16T11:50:15Z</time>
      </trkpt>
      <trkpt lat="47.31696" lon="6.23506">
        <ele>340</ele>
        <time>2015-04-16T11:50:24Z</time>
      </trkpt>
      <trkpt lat="47.31694" lon="6.23493">
        <ele>340</ele>
        <time>2015-04-16T11:50:31Z</time>
      </trkpt>
      <trkpt lat="47.31691" lon="6.23465">
        <ele>341</ele>
        <time>2015-04-16T11:50:47Z</time>
      </trkpt>
      <trkpt lat="47.3169" lon="6.23451">
        <ele>341</ele>
        <time>2015-04-16T11:50:58Z</time>
      </trkpt>
      <trkpt lat="47.31688" lon="6.23436">
        <ele>342</ele>
        <time>2015-04-16T11:51:07Z</time>
      </trkpt>
      <trkpt lat="47.31682" lon="6.23391">
        <ele>341</ele>
        <time>2015-04-16T11:51:32Z</time>
      </trkpt>
      <trkpt lat="47.31679" lon="6.23384">
        <ele>342</ele>
        <time>2015-04-16T11:51:37Z</time>
      </trkpt>
      <trkpt lat="47.31672" lon="6.23369">
        <ele>342</ele>
        <time>2015-04-16T11:51:48Z</time>
      </trkpt>
      <trkpt lat="47.31665" lon="6.23339">
        <ele>344</ele>
        <time>2015-04-16T11:52:08Z</time>
      </trkpt>
      <trkpt lat="47.3166" lon="6.23314">
        <ele>342</ele>
        <time>2015-04-16T11:52:22Z</time>
      </trkpt>
      <trkpt lat="47.31653" lon="6.23304">
        <ele>342</ele>
        <time>2015-04-16T11:52:31Z</time>
      </trkpt>
      <trkpt lat="47.31649" lon="6.23297">
        <ele>342</ele>
        <time>2015-04-16T11:52:35Z</time>
      </trkpt>
      <trkpt lat="47.31645" lon="6.23295">
        <ele>342</ele>
        <time>2015-04-16T11:52:40Z</time>
      </trkpt>
      <trkpt lat="47.31639" lon="6.23266">
        <ele>343</ele>
        <time>2015-04-16T11:52:48Z</time>
      </trkpt>
      <trkpt lat="47.31631" lon="6.23247">
        <ele>344</ele>
        <time>2015-04-16T11:53:00Z</time>
      </trkpt>
      <trkpt lat="47.31624" lon="6.23227">
        <ele>343</ele>
        <time>2015-04-16T11:53:17Z</time>
      </trkpt>
      <trkpt lat="47.31611" lon="6.23206">
        <ele>343</ele>
        <time>2015-04-16T11:53:29Z</time>
      </trkpt>
      <trkpt lat="47.31602" lon="6.232">
        <ele>343</ele>
        <time>2015-04-16T11:53:38Z</time>
      </trkpt>
      <trkpt lat="47.31592" lon="6.23177">
        <ele>345</ele>
        <time>2015-04-16T11:53:51Z</time>
      </trkpt>
      <trkpt lat="47.31584" lon="6.23174">
        <ele>345</ele>
        <time>2015-04-16T11:53:54Z</time>
      </trkpt>
      <trkpt lat="47.31578" lon="6.23164">
        <ele>345</ele>
        <time>2015-04-16T11:53:59Z</time>
      </trkpt>
      <trkpt lat="47.31576" lon="6.23151">
        <ele>345</ele>
        <time>2015-04-16T11:54:08Z</time>
      </trkpt>
      <trkpt lat="47.3157" lon="6.2314">
        <ele>342</ele>
        <time>2015-04-16T11:54:18Z</time>
      </trkpt>
      <trkpt lat="47.31563" lon="6.23131">
        <ele>342</ele>
        <time>2015-04-16T11:54:30Z</time>
      </trkpt>
      <trkpt lat="47.31555" lon="6.23123">
        <ele>342</ele>
        <time>2015-04-16T11:54:36Z</time>
      </trkpt>
      <trkpt lat="47.31552" lon="6.23095">
        <ele>342</ele>
        <time>2015-04-16T11:54:51Z</time>
      </trkpt>
      <trkpt lat="47.31533" lon="6.2303">
        <ele>344</ele>
        <time>2015-04-16T11:55:26Z</time>
      </trkpt>
      <trkpt lat="47.31529" lon="6.23017">
        <ele>344</ele>
        <time>2015-04-16T11:55:33Z</time>
      </trkpt>
      <trkpt lat="47.31517" lon="6.22995">
        <ele>342</ele>
        <time>2015-04-16T11:55:50Z</time>
      </trkpt>
      <trkpt lat="47.3151" lon="6.22987">
        <ele>342</ele>
        <time>2015-04-16T11:55:58Z</time>
      </trkpt>
      <trkpt lat="47.31512" lon="6.22983">
        <ele>342</ele>
        <time>2015-04-16T11:56:10Z</time>
      </trkpt>
      <trkpt lat="47.31505" lon="6.22983">
        <ele>343</ele>
        <time>2015-04-16T11:56:34Z</time>
      </trkpt>
      <trkpt lat="47.315" lon="6.22984">
        <ele>344</ele>
        <time>2015-04-16T11:56:40Z</time>
      </trkpt>
      <trkpt lat="47.31485" lon="6.22977">
        <ele>345</ele>
        <time>2015-04-16T11:56:50Z</time>
      </trkpt>
      <trkpt lat="47.31478" lon="6.22965">
        <ele>344</ele>
        <time>2015-04-16T11:56:59Z</time>
      </trkpt>
      <trkpt lat="47.31475" lon="6.22954">
        <ele>344</ele>
        <time>2015-04-16T11:57:03Z</time>
      </trkpt>
      <trkpt lat="47.31464" lon="6.22941">
        <ele>344</ele>
        <time>2015-04-16T11:57:15Z</time>
      </trkpt>
      <trkpt lat="47.31458" lon="6.2293">
        <ele>343</ele>
        <time>2015-04-16T11:57:27Z</time>
      </trkpt>
      <trkpt lat="47.31447" lon="6.22906">
        <ele>342</ele>
        <time>2015-04-16T11:57:44Z</time>
      </trkpt>
      <trkpt lat="47.31442" lon="6.22895">
        <ele>343</ele>
        <time>2015-04-16T11:57:50Z</time>
      </trkpt>
      <trkpt lat="47.3143" lon="6.22873">
        <ele>342</ele>
        <time>2015-04-16T11:58:06Z</time>
      </trkpt>
      <trkpt lat="47.31423" lon="6.22864">
        <ele>343</ele>
        <time>2015-04-16T11:58:15Z</time>
      </trkpt>
      <trkpt lat="47.31418" lon="6.22838">
        <ele>344</ele>
        <time>2015-04-16T11:58:28Z</time>
      </trkpt>
      <trkpt lat="47.31397" lon="6.22788">
        <ele>347</ele>
        <time>2015-04-16T11:59:03Z</time>
      </trkpt>
      <trkpt lat="47.31394" lon="6.22774">
        <ele>348</ele>
        <time>2015-04-16T11:59:12Z</time>
      </trkpt>
      <trkpt lat="47.31383" lon="6.22733">
        <ele>351</ele>
        <time>2015-04-16T11:59:35Z</time>
      </trkpt>
      <trkpt lat="47.31372" lon="6.22694">
        <ele>351</ele>
        <time>2015-04-16T12:00:02Z</time>
      </trkpt>
      <trkpt lat="47.31368" lon="6.22681">
        <ele>352</ele>
        <time>2015-04-16T12:00:11Z</time>
      </trkpt>
      <trkpt lat="47.31375" lon="6.22642">
        <ele>354</ele>
        <time>2015-04-16T12:00:34Z</time>
      </trkpt>
      <trkpt lat="47.31373" lon="6.22628">
        <ele>354</ele>
        <time>2015-04-16T12:00:41Z</time>
      </trkpt>
      <trkpt lat="47.31365" lon="6.22588">
        <ele>355</ele>
        <time>2015-04-16T12:01:02Z</time>
      </trkpt>
      <trkpt lat="47.31365" lon="6.22573">
        <ele>357</ele>
        <time>2015-04-16T12:01:12Z</time>
      </trkpt>
      <trkpt lat="47.3136" lon="6.22531">
        <ele>357</ele>
        <time>2015-04-16T12:01:35Z</time>
      </trkpt>
      <trkpt lat="47.31363" lon="6.22517">
        <ele>358</ele>
        <time>2015-04-16T12:01:42Z</time>
      </trkpt>
      <trkpt lat="47.31369" lon="6.22506">
        <ele>358</ele>
        <time>2015-04-16T12:01:53Z</time>
      </trkpt>
      <trkpt lat="47.31376" lon="6.22466">
        <ele>358</ele>
        <time>2015-04-16T12:02:19Z</time>
      </trkpt>
      <trkpt lat="47.31389" lon="6.22444">
        <ele>359</ele>
        <time>2015-04-16T12:02:32Z</time>
      </trkpt>
      <trkpt lat="47.31391" lon="6.22429">
        <ele>359</ele>
        <time>2015-04-16T12:02:40Z</time>
      </trkpt>
      <trkpt lat="47.314" lon="6.22426">
        <ele>359</ele>
        <time>2015-04-16T12:02:48Z</time>
      </trkpt>
      <trkpt lat="47.31406" lon="6.22415">
        <ele>359</ele>
        <time>2015-04-16T12:02:55Z</time>
      </trkpt>
      <trkpt lat="47.31422" lon="6.22364">
        <ele>364</ele>
        <time>2015-04-16T12:03:27Z</time>
      </trkpt>
      <trkpt lat="47.31439" lon="6.22314">
        <ele>366</ele>
        <time>2015-04-16T12:03:58Z</time>
      </trkpt>
      <trkpt lat="47.31442" lon="6.22299">
        <ele>367</ele>
        <time>2015-04-16T12:04:04Z</time>
      </trkpt>
      <trkpt lat="47.31465" lon="6.22257">
        <ele>367</ele>
        <time>2015-04-16T12:04:41Z</time>
      </trkpt>
      <trkpt lat="47.31489" lon="6.22212">
        <ele>370</ele>
        <time>2015-04-16T12:05:09Z</time>
      </trkpt>
      <trkpt lat="47.31509" lon="6.22199">
        <ele>371</ele>
        <time>2015-04-16T12:05:20Z</time>
      </trkpt>
      <trkpt lat="47.31513" lon="6.22192">
        <ele>372</ele>
        <time>2015-04-16T12:05:22Z</time>
      </trkpt>
      <trkpt lat="47.31531" lon="6.22174">
        <ele>375</ele>
        <time>2015-04-16T12:05:49Z</time>
      </trkpt>
      <trkpt lat="47.31538" lon="6.22163">
        <ele>376</ele>
        <time>2015-04-16T12:05:57Z</time>
      </trkpt>
      <trkpt lat="47.31547" lon="6.22159">
        <ele>375</ele>
        <time>2015-04-16T12:06:04Z</time>
      </trkpt>
      <trkpt lat="47.31554" lon="6.22149">
        <ele>375</ele>
        <time>2015-04-16T12:06:12Z</time>
      </trkpt>
      <trkpt lat="47.31567" lon="6.22128">
        <ele>377</ele>
        <time>2015-04-16T12:06:24Z</time>
      </trkpt>
      <trkpt lat="47.31567" lon="6.22113">
        <ele>378</ele>
        <time>2015-04-16T12:06:31Z</time>
      </trkpt>
      <trkpt lat="47.31571" lon="6.22101">
        <ele>378</ele>
        <time>2015-04-16T12:06:39Z</time>
      </trkpt>
      <trkpt lat="47.31574" lon="6.22088">
        <ele>377</ele>
        <time>2015-04-16T12:06:48Z</time>
      </trkpt>
      <trkpt lat="47.31578" lon="6.22061">
        <ele>379</ele>
        <time>2015-04-16T12:07:03Z</time>
      </trkpt>
      <trkpt lat="47.31575" lon="6.22048">
        <ele>380</ele>
        <time>2015-04-16T12:07:11Z</time>
      </trkpt>
      <trkpt lat="47.31573" lon="6.22035">
        <ele>380</ele>
        <time>2015-04-16T12:07:19Z</time>
      </trkpt>
      <trkpt lat="47.31575" lon="6.22021">
        <ele>380</ele>
        <time>2015-04-16T12:07:28Z</time>
      </trkpt>
      <trkpt lat="47.31584" lon="6.21996">
        <ele>379</ele>
        <time>2015-04-16T12:07:47Z</time>
      </trkpt>
      <trkpt lat="47.31582" lon="6.21983">
        <ele>379</ele>
        <time>2015-04-16T12:07:52Z</time>
      </trkpt>
      <trkpt lat="47.31583" lon="6.21955">
        <ele>378</ele>
        <time>2015-04-16T12:08:07Z</time>
      </trkpt>
      <trkpt lat="47.31589" lon="6.21901">
        <ele>381</ele>
        <time>2015-04-16T12:08:39Z</time>
      </trkpt>
      <trkpt lat="47.31594" lon="6.21847">
        <ele>385</ele>
        <time>2015-04-16T12:09:10Z</time>
      </trkpt>
      <trkpt lat="47.31592" lon="6.21833">
        <ele>385</ele>
        <time>2015-04-16T12:09:17Z</time>
      </trkpt>
      <trkpt lat="47.31593" lon="6.21818">
        <ele>384</ele>
        <time>2015-04-16T12:09:26Z</time>
      </trkpt>
      <trkpt lat="47.31591" lon="6.21776">
        <ele>386</ele>
        <time>2015-04-16T12:09:50Z</time>
      </trkpt>
      <trkpt lat="47.31586" lon="6.21749">
        <ele>385</ele>
        <time>2015-04-16T12:10:03Z</time>
      </trkpt>
      <trkpt lat="47.31579" lon="6.21739">
        <ele>385</ele>
        <time>2015-04-16T12:10:07Z</time>
      </trkpt>
      <trkpt lat="47.31577" lon="6.21725">
        <ele>385</ele>
        <time>2015-04-16T12:10:14Z</time>
      </trkpt>
      <trkpt lat="47.31581" lon="6.21712">
        <ele>386</ele>
        <time>2015-04-16T12:10:23Z</time>
      </trkpt>
      <trkpt lat="47.3158" lon="6.21655">
        <ele>384</ele>
        <time>2015-04-16T12:10:54Z</time>
      </trkpt>
      <trkpt lat="47.31581" lon="6.21641">
        <ele>383</ele>
        <time>2015-04-16T12:11:08Z</time>
      </trkpt>
      <trkpt lat="47.31578" lon="6.21653">
        <ele>381</ele>
        <time>2015-04-16T12:11:35Z</time>
      </trkpt>
      <trkpt lat="47.31587" lon="6.21654">
        <ele>381</ele>
        <time>2015-04-16T12:11:49Z</time>
      </trkpt>
      <trkpt lat="47.31585" lon="6.2167">
        <ele>378</ele>
        <time>2015-04-16T12:12:19Z</time>
      </trkpt>
      <trkpt lat="47.31587" lon="6.21678">
        <ele>376</ele>
        <time>2015-04-16T12:12:32Z</time>
      </trkpt>
      <trkpt lat="47.31589" lon="6.21668">
        <ele>373</ele>
        <time>2015-04-16T12:13:15Z</time>
      </trkpt>
      <trkpt lat="47.31579" lon="6.21646">
        <ele>372</ele>
        <time>2015-04-16T12:13:28Z</time>
      </trkpt>
      <trkpt lat="47.31565" lon="6.21645">
        <ele>369</ele>
        <time>2015-04-16T12:13:39Z</time>
      </trkpt>
      <trkpt lat="47.31569" lon="6.21647">
        <ele>374</ele>
        <time>2015-04-16T12:14:11Z</time>
      </trkpt>
      <trkpt lat="47.31577" lon="6.2164">
        <ele>373</ele>
        <time>2015-04-16T12:14:26Z</time>
      </trkpt>
      <trkpt lat="47.31575" lon="6.21648">
        <ele>374</ele>
        <time>2015-04-16T12:14:49Z</time>
      </trkpt>
      <trkpt lat="47.31575" lon="6.21647">
        <ele>372</ele>
        <time>2015-04-16T12:15:13Z</time>
      </trkpt>
      <trkpt lat="47.31579" lon="6.21635">
        <ele>371</ele>
        <time>2015-04-16T12:15:22Z</time>
      </trkpt>
      <trkpt lat="47.3159" lon="6.21634">
        <ele>372</ele>
        <time>2015-04-16T12:15:35Z</time>
      </trkpt>
      <trkpt lat="47.31586" lon="6.21626">
        <ele>376</ele>
        <time>2015-04-16T12:15:54Z</time>
      </trkpt>
      <trkpt lat="47.31579" lon="6.21636">
        <ele>378</ele>
        <time>2015-04-16T12:16:38Z</time>
      </trkpt>
      <trkpt lat="47.3158" lon="6.21643">
        <ele>378</ele>
        <time>2015-04-16T12:16:51Z</time>
      </trkpt>
      <trkpt lat="47.3159" lon="6.21645">
        <ele>379</ele>
        <time>2015-04-16T12:17:02Z</time>
      </trkpt>
      <trkpt lat="47.316" lon="6.21643">
        <ele>378</ele>
        <time>2015-04-16T12:17:08Z</time>
      </trkpt>
      <trkpt lat="47.31628" lon="6.21641">
        <ele>373</ele>
        <time>2015-04-16T12:17:27Z</time>
      </trkpt>
      <trkpt lat="47.31628" lon="6.21625">
        <ele>372</ele>
        <time>2015-04-16T12:18:04Z</time>
      </trkpt>
      <trkpt lat="47.31632" lon="6.21629">
        <ele>374</ele>
        <time>2015-04-16T12:18:29Z</time>
      </trkpt>
      <trkpt lat="47.31642" lon="6.21633">
        <ele>374</ele>
        <time>2015-04-16T12:18:34Z</time>
      </trkpt>
      <trkpt lat="47.31652" lon="6.21636">
        <ele>376</ele>
        <time>2015-04-16T12:18:39Z</time>
      </trkpt>
      <trkpt lat="47.3167" lon="6.21636">
        <ele>377</ele>
        <time>2015-04-16T12:18:54Z</time>
      </trkpt>
      <trkpt lat="47.31679" lon="6.21629">
        <ele>376</ele>
        <time>2015-04-16T12:19:05Z</time>
      </trkpt>
      <trkpt lat="47.31683" lon="6.21616">
        <ele>376</ele>
        <time>2015-04-16T12:19:10Z</time>
      </trkpt>
      <trkpt lat="47.31685" lon="6.21602">
        <ele>376</ele>
        <time>2015-04-16T12:19:18Z</time>
      </trkpt>
      <trkpt lat="47.31689" lon="6.21589">
        <ele>377</ele>
        <time>2015-04-16T12:19:25Z</time>
      </trkpt>
      <trkpt lat="47.31691" lon="6.21559">
        <ele>377</ele>
        <time>2015-04-16T12:19:37Z</time>
      </trkpt>
      <trkpt lat="47.31699" lon="6.21529">
        <ele>376</ele>
        <time>2015-04-16T12:20:13Z</time>
      </trkpt>
      <trkpt lat="47.31699" lon="6.21516">
        <ele>375</ele>
        <time>2015-04-16T12:20:23Z</time>
      </trkpt>
      <trkpt lat="47.31704" lon="6.21503">
        <ele>374</ele>
        <time>2015-04-16T12:20:32Z</time>
      </trkpt>
      <trkpt lat="47.31707" lon="6.2149">
        <ele>373</ele>
        <time>2015-04-16T12:20:40Z</time>
      </trkpt>
      <trkpt lat="47.31705" lon="6.21434">
        <ele>370</ele>
        <time>2015-04-16T12:21:16Z</time>
      </trkpt>
      <trkpt lat="47.31705" lon="6.21421">
        <ele>370</ele>
        <time>2015-04-16T12:21:24Z</time>
      </trkpt>
      <trkpt lat="47.31685" lon="6.21373">
        <ele>368</ele>
        <time>2015-04-16T12:21:55Z</time>
      </trkpt>
      <trkpt lat="47.31682" lon="6.2136">
        <ele>368</ele>
        <time>2015-04-16T12:22:02Z</time>
      </trkpt>
      <trkpt lat="47.31678" lon="6.21346">
        <ele>368</ele>
        <time>2015-04-16T12:22:12Z</time>
      </trkpt>
      <trkpt lat="47.31677" lon="6.21339">
        <ele>368</ele>
        <time>2015-04-16T12:22:19Z</time>
      </trkpt>
      <trkpt lat="47.31674" lon="6.21326">
        <ele>368</ele>
        <time>2015-04-16T12:22:29Z</time>
      </trkpt>
      <trkpt lat="47.31668" lon="6.21307">
        <ele>368</ele>
        <time>2015-04-16T12:22:41Z</time>
      </trkpt>
      <trkpt lat="47.31669" lon="6.21299">
        <ele>368</ele>
        <time>2015-04-16T12:22:46Z</time>
      </trkpt>
      <trkpt lat="47.31659" lon="6.21234">
        <ele>368</ele>
        <time>2015-04-16T12:23:23Z</time>
      </trkpt>
      <trkpt lat="47.31656" lon="6.21221">
        <ele>368</ele>
        <time>2015-04-16T12:23:30Z</time>
      </trkpt>
      <trkpt lat="47.31651" lon="6.2121">
        <ele>367</ele>
        <time>2015-04-16T12:23:37Z</time>
      </trkpt>
      <trkpt lat="47.31648" lon="6.21197">
        <ele>367</ele>
        <time>2015-04-16T12:23:48Z</time>
      </trkpt>
      <trkpt lat="47.31651" lon="6.21155">
        <ele>368</ele>
        <time>2015-04-16T12:24:15Z</time>
      </trkpt>
      <trkpt lat="47.31646" lon="6.21142">
        <ele>368</ele>
        <time>2015-04-16T12:24:21Z</time>
      </trkpt>
      <trkpt lat="47.31647" lon="6.21127">
        <ele>368</ele>
        <time>2015-04-16T12:24:29Z</time>
      </trkpt>
      <trkpt lat="47.31631" lon="6.2106">
        <ele>369</ele>
        <time>2015-04-16T12:25:00Z</time>
      </trkpt>
      <trkpt lat="47.31621" lon="6.2102">
        <ele>370</ele>
        <time>2015-04-16T12:25:22Z</time>
      </trkpt>
      <trkpt lat="47.31614" lon="6.21011">
        <ele>369</ele>
        <time>2015-04-16T12:25:27Z</time>
      </trkpt>
      <trkpt lat="47.31606" lon="6.21004">
        <ele>369</ele>
        <time>2015-04-16T12:25:31Z</time>
      </trkpt>
      <trkpt lat="47.31586" lon="6.20974">
        <ele>369</ele>
        <time>2015-04-16T12:25:54Z</time>
      </trkpt>
      <trkpt lat="47.31583" lon="6.20961">
        <ele>369</ele>
        <time>2015-04-16T12:26:01Z</time>
      </trkpt>
      <trkpt lat="47.31561" lon="6.20916">
        <ele>370</ele>
        <time>2015-04-16T12:26:36Z</time>
      </trkpt>
      <trkpt lat="47.31557" lon="6.20904">
        <ele>370</ele>
        <time>2015-04-16T12:26:41Z</time>
      </trkpt>
      <trkpt lat="47.31549" lon="6.20896">
        <ele>369</ele>
        <time>2015-04-16T12:26:47Z</time>
      </trkpt>
      <trkpt lat="47.31542" lon="6.20869">
        <ele>367</ele>
        <time>2015-04-16T12:27:05Z</time>
      </trkpt>
      <trkpt lat="47.31509" lon="6.20817">
        <ele>365</ele>
        <time>2015-04-16T12:27:41Z</time>
      </trkpt>
      <trkpt lat="47.31491" lon="6.20764">
        <ele>363</ele>
        <time>2015-04-16T12:28:14Z</time>
      </trkpt>
      <trkpt lat="47.31487" lon="6.20709">
        <ele>363</ele>
        <time>2015-04-16T12:28:44Z</time>
      </trkpt>
      <trkpt lat="47.31468" lon="6.20661">
        <ele>363</ele>
        <time>2015-04-16T12:29:15Z</time>
      </trkpt>
      <trkpt lat="47.31442" lon="6.20642">
        <ele>364</ele>
        <time>2015-04-16T12:29:36Z</time>
      </trkpt>
      <trkpt lat="47.31433" lon="6.20618">
        <ele>364</ele>
        <time>2015-04-16T12:29:52Z</time>
      </trkpt>
      <trkpt lat="47.3143" lon="6.20594">
        <ele>363</ele>
        <time>2015-04-16T12:30:09Z</time>
      </trkpt>
      <trkpt lat="47.31429" lon="6.20567">
        <ele>363</ele>
        <time>2015-04-16T12:30:25Z</time>
      </trkpt>
      <trkpt lat="47.31419" lon="6.20513">
        <ele>361</ele>
        <time>2015-04-16T12:30:59Z</time>
      </trkpt>
      <trkpt lat="47.31417" lon="6.20499">
        <ele>361</ele>
        <time>2015-04-16T12:31:06Z</time>
      </trkpt>
      <trkpt lat="47.31386" lon="6.20447">
        <ele>361</ele>
        <time>2015-04-16T12:31:38Z</time>
      </trkpt>
      <trkpt lat="47.31381" lon="6.20392">
        <ele>360</ele>
        <time>2015-04-16T12:32:15Z</time>
      </trkpt>
      <trkpt lat="47.31377" lon="6.2038">
        <ele>360</ele>
        <time>2015-04-16T12:32:24Z</time>
      </trkpt>
      <trkpt lat="47.31373" lon="6.20351">
        <ele>361</ele>
        <time>2015-04-16T12:32:46Z</time>
      </trkpt>
      <trkpt lat="47.31367" lon="6.20338">
        <ele>361</ele>
        <time>2015-04-16T12:32:54Z</time>
      </trkpt>
      <trkpt lat="47.3136" lon="6.20283">
        <ele>360</ele>
        <time>2015-04-16T12:33:23Z</time>
      </trkpt>
      <trkpt lat="47.31366" lon="6.20273">
        <ele>360</ele>
        <time>2015-04-16T12:33:30Z</time>
      </trkpt>
      <trkpt lat="47.31368" lon="6.20265">
        <ele>360</ele>
        <time>2015-04-16T12:33:32Z</time>
      </trkpt>
      <trkpt lat="47.31364" lon="6.20252">
        <ele>360</ele>
        <time>2015-04-16T12:33:43Z</time>
      </trkpt>
      <trkpt lat="47.31356" lon="6.20238">
        <ele>360</ele>
        <time>2015-04-16T12:34:04Z</time>
      </trkpt>
      <trkpt lat="47.31353" lon="6.20229">
        <ele>360</ele>
        <time>2015-04-16T12:34:19Z</time>
      </trkpt>
      <trkpt lat="47.31349" lon="6.20228">
        <ele>360</ele>
        <time>2015-04-16T12:36:12Z</time>
      </trkpt>
      <trkpt lat="47.31341" lon="6.20214">
        <ele>360</ele>
        <time>2015-04-16T12:36:41Z</time>
      </trkpt>
      <trkpt lat="47.31344" lon="6.20202">
        <ele>360</ele>
        <time>2015-04-16T12:36:55Z</time>
      </trkpt>
      <trkpt lat="47.31345" lon="6.20174">
        <ele>358</ele>
        <time>2015-04-16T12:37:30Z</time>
      </trkpt>
      <trkpt lat="47.31348" lon="6.20117">
        <ele>357</ele>
        <time>2015-04-16T12:38:02Z</time>
      </trkpt>
      <trkpt lat="47.31355" lon="6.20061">
        <ele>357</ele>
        <time>2015-04-16T12:38:35Z</time>
      </trkpt>
      <trkpt lat="47.31358" lon="6.2003">
        <ele>356</ele>
        <time>2015-04-16T12:39:16Z</time>
      </trkpt>
      <trkpt lat="47.31361" lon="6.20017">
        <ele>356</ele>
        <time>2015-04-16T12:39:24Z</time>
      </trkpt>
      <trkpt lat="47.3136" lon="6.20004">
        <ele>357</ele>
        <time>2015-04-16T12:39:31Z</time>
      </trkpt>
      <trkpt lat="47.31363" lon="6.1999">
        <ele>357</ele>
        <time>2015-04-16T12:39:40Z</time>
      </trkpt>
      <trkpt lat="47.3136" lon="6.19973">
        <ele>357</ele>
        <time>2015-04-16T12:39:47Z</time>
      </trkpt>
      <trkpt lat="47.31354" lon="6.1996">
        <ele>356</ele>
        <time>2015-04-16T12:39:52Z</time>
      </trkpt>
      <trkpt lat="47.3135" lon="6.19889">
        <ele>355</ele>
        <time>2015-04-16T12:40:26Z</time>
      </trkpt>
      <trkpt lat="47.31345" lon="6.19847">
        <ele>354</ele>
        <time>2015-04-16T12:40:55Z</time>
      </trkpt>
      <trkpt lat="47.31331" lon="6.19829">
        <ele>352</ele>
        <time>2015-04-16T12:41:09Z</time>
      </trkpt>
      <trkpt lat="47.31333" lon="6.19815">
        <ele>352</ele>
        <time>2015-04-16T12:41:21Z</time>
      </trkpt>
      <trkpt lat="47.31332" lon="6.19787">
        <ele>352</ele>
        <time>2015-04-16T12:41:37Z</time>
      </trkpt>
      <trkpt lat="47.31325" lon="6.19761">
        <ele>351</ele>
        <time>2015-04-16T12:41:52Z</time>
      </trkpt>
      <trkpt lat="47.31321" lon="6.19703">
        <ele>347</ele>
        <time>2015-04-16T12:42:29Z</time>
      </trkpt>
      <trkpt lat="47.31314" lon="6.19678">
        <ele>344</ele>
        <time>2015-04-16T12:42:42Z</time>
      </trkpt>
      <trkpt lat="47.31311" lon="6.19665">
        <ele>344</ele>
        <time>2015-04-16T12:42:48Z</time>
      </trkpt>
      <trkpt lat="47.31304" lon="6.19655">
        <ele>343</ele>
        <time>2015-04-16T12:42:55Z</time>
      </trkpt>
      <trkpt lat="47.31282" lon="6.19609">
        <ele>337</ele>
        <time>2015-04-16T12:43:30Z</time>
      </trkpt>
      <trkpt lat="47.31244" lon="6.19565">
        <ele>331</ele>
        <time>2015-04-16T12:44:03Z</time>
      </trkpt>
      <trkpt lat="47.3121" lon="6.19539">
        <ele>331</ele>
        <time>2015-04-16T12:44:31Z</time>
      </trkpt>
      <trkpt lat="47.31201" lon="6.19532">
        <ele>330</ele>
        <time>2015-04-16T12:44:37Z</time>
      </trkpt>
      <trkpt lat="47.31192" lon="6.1953">
        <ele>330</ele>
        <time>2015-04-16T12:44:45Z</time>
      </trkpt>
      <trkpt lat="47.31153" lon="6.1952">
        <ele>331</ele>
        <time>2015-04-16T12:45:14Z</time>
      </trkpt>
      <trkpt lat="47.31143" lon="6.19522">
        <ele>330</ele>
        <time>2015-04-16T12:45:22Z</time>
      </trkpt>
      <trkpt lat="47.31135" lon="6.19531">
        <ele>330</ele>
        <time>2015-04-16T12:45:28Z</time>
      </trkpt>
      <trkpt lat="47.31115" lon="6.19537">
        <ele>330</ele>
        <time>2015-04-16T12:45:44Z</time>
      </trkpt>
      <trkpt lat="47.31079" lon="6.19561">
        <ele>322</ele>
        <time>2015-04-16T12:46:22Z</time>
      </trkpt>
      <trkpt lat="47.31051" lon="6.19568">
        <ele>316</ele>
        <time>2015-04-16T12:46:45Z</time>
      </trkpt>
      <trkpt lat="47.31043" lon="6.19562">
        <ele>314</ele>
        <time>2015-04-16T12:46:53Z</time>
      </trkpt>
      <trkpt lat="47.31039" lon="6.19549">
        <ele>312</ele>
        <time>2015-04-16T12:47:04Z</time>
      </trkpt>
      <trkpt lat="47.31035" lon="6.19537">
        <ele>312</ele>
        <time>2015-04-16T12:47:13Z</time>
      </trkpt>
      <trkpt lat="47.31031" lon="6.19525">
        <ele>313</ele>
        <time>2015-04-16T12:47:21Z</time>
      </trkpt>
      <trkpt lat="47.31029" lon="6.19512">
        <ele>313</ele>
        <time>2015-04-16T12:47:32Z</time>
      </trkpt>
      <trkpt lat="47.31026" lon="6.19505">
        <ele>314</ele>
        <time>2015-04-16T12:47:45Z</time>
      </trkpt>
      <trkpt lat="47.31016" lon="6.19503">
        <ele>314</ele>
        <time>2015-04-16T12:48:32Z</time>
      </trkpt>
      <trkpt lat="47.31012" lon="6.19486">
        <ele>314</ele>
        <time>2015-04-16T12:48:54Z</time>
      </trkpt>
      <trkpt lat="47.31006" lon="6.1946">
        <ele>315</ele>
        <time>2015-04-16T12:49:11Z</time>
      </trkpt>
      <trkpt lat="47.30994" lon="6.19421">
        <ele>314</ele>
        <time>2015-04-16T12:49:34Z</time>
      </trkpt>
      <trkpt lat="47.30984" lon="6.1938">
        <ele>316</ele>
        <time>2015-04-16T12:50:01Z</time>
      </trkpt>
      <trkpt lat="47.30977" lon="6.1937">
        <ele>315</ele>
        <time>2015-04-16T12:50:08Z</time>
      </trkpt>
      <trkpt lat="47.30972" lon="6.19365">
        <ele>314</ele>
        <time>2015-04-16T12:50:12Z</time>
      </trkpt>
      <trkpt lat="47.30965" lon="6.19355">
        <ele>314</ele>
        <time>2015-04-16T12:50:19Z</time>
      </trkpt>
      <trkpt lat="47.30956" lon="6.19352">
        <ele>314</ele>
        <time>2015-04-16T12:50:29Z</time>
      </trkpt>
      <trkpt lat="47.30929" lon="6.19365">
        <ele>316</ele>
        <time>2015-04-16T12:50:53Z</time>
      </trkpt>
      <trkpt lat="47.30921" lon="6.19371">
        <ele>315</ele>
        <time>2015-04-16T12:51:01Z</time>
      </trkpt>
      <trkpt lat="47.30912" lon="6.19374">
        <ele>316</ele>
        <time>2015-04-16T12:51:11Z</time>
      </trkpt>
      <trkpt lat="47.30894" lon="6.19364">
        <ele>317</ele>
        <time>2015-04-16T12:51:28Z</time>
      </trkpt>
      <trkpt lat="47.30884" lon="6.19341">
        <ele>319</ele>
        <time>2015-04-16T12:51:45Z</time>
      </trkpt>
      <trkpt lat="47.30883" lon="6.19289">
        <ele>319</ele>
        <time>2015-04-16T12:52:13Z</time>
      </trkpt>
      <trkpt lat="47.30882" lon="6.19276">
        <ele>320</ele>
        <time>2015-04-16T12:52:22Z</time>
      </trkpt>
      <trkpt lat="47.30874" lon="6.19236">
        <ele>322</ele>
        <time>2015-04-16T12:52:47Z</time>
      </trkpt>
      <trkpt lat="47.30872" lon="6.19214">
        <ele>325</ele>
        <time>2015-04-16T12:52:59Z</time>
      </trkpt>
      <trkpt lat="47.30867" lon="6.19192">
        <ele>326</ele>
        <time>2015-04-16T12:53:12Z</time>
      </trkpt>
      <trkpt lat="47.30865" lon="6.19186">
        <ele>328</ele>
        <time>2015-04-16T12:53:16Z</time>
      </trkpt>
      <trkpt lat="47.30864" lon="6.19178">
        <ele>329</ele>
        <time>2015-04-16T12:53:21Z</time>
      </trkpt>
      <trkpt lat="47.30861" lon="6.19172">
        <ele>329</ele>
        <time>2015-04-16T12:53:26Z</time>
      </trkpt>
      <trkpt lat="47.30858" lon="6.19167">
        <ele>329</ele>
        <time>2015-04-16T12:53:30Z</time>
      </trkpt>
      <trkpt lat="47.30834" lon="6.19122">
        <ele>335</ele>
        <time>2015-04-16T12:54:02Z</time>
      </trkpt>
      <trkpt lat="47.30825" lon="6.19106">
        <ele>337</ele>
        <time>2015-04-16T12:54:14Z</time>
      </trkpt>
      <trkpt lat="47.30817" lon="6.19095">
        <ele>338</ele>
        <time>2015-04-16T12:54:23Z</time>
      </trkpt>
      <trkpt lat="47.30793" lon="6.19058">
        <ele>341</ele>
        <time>2015-04-16T12:54:55Z</time>
      </trkpt>
      <trkpt lat="47.30789" lon="6.19054">
        <ele>341</ele>
        <time>2015-04-16T12:54:59Z</time>
      </trkpt>
      <trkpt lat="47.30772" lon="6.1904">
        <ele>344</ele>
        <time>2015-04-16T12:55:17Z</time>
      </trkpt>
      <trkpt lat="47.30765" lon="6.19033">
        <ele>344</ele>
        <time>2015-04-16T12:55:24Z</time>
      </trkpt>
      <trkpt lat="47.30756" lon="6.19027">
        <ele>346</ele>
        <time>2015-04-16T12:55:33Z</time>
      </trkpt>
      <trkpt lat="47.3074" lon="6.19014">
        <ele>347</ele>
        <time>2015-04-16T12:55:49Z</time>
      </trkpt>
      <trkpt lat="47.30731" lon="6.19007">
        <ele>347</ele>
        <time>2015-04-16T12:55:57Z</time>
      </trkpt>
      <trkpt lat="47.30714" lon="6.18994">
        <ele>348</ele>
        <time>2015-04-16T12:56:15Z</time>
      </trkpt>
      <trkpt lat="47.30681" lon="6.18968">
        <ele>353</ele>
        <time>2015-04-16T12:56:50Z</time>
      </trkpt>
      <trkpt lat="47.30672" lon="6.1896">
        <ele>354</ele>
        <time>2015-04-16T12:56:59Z</time>
      </trkpt>
      <trkpt lat="47.30644" lon="6.18937">
        <ele>360</ele>
        <time>2015-04-16T12:57:32Z</time>
      </trkpt>
      <trkpt lat="47.30611" lon="6.18906">
        <ele>367</ele>
        <time>2015-04-16T12:58:07Z</time>
      </trkpt>
      <trkpt lat="47.30603" lon="6.189">
        <ele>367</ele>
        <time>2015-04-16T12:58:16Z</time>
      </trkpt>
      <trkpt lat="47.30595" lon="6.18893">
        <ele>368</ele>
        <time>2015-04-16T12:58:24Z</time>
      </trkpt>
      <trkpt lat="47.30565" lon="6.18859">
        <ele>370</ele>
        <time>2015-04-16T12:58:56Z</time>
      </trkpt>
      <trkpt lat="47.3053" lon="6.18839">
        <ele>375</ele>
        <time>2015-04-16T12:59:32Z</time>
      </trkpt>
      <trkpt lat="47.30494" lon="6.18846">
        <ele>379</ele>
        <time>2015-04-16T12:59:57Z</time>
      </trkpt>
      <trkpt lat="47.30471" lon="6.18867">
        <ele>380</ele>
        <time>2015-04-16T13:00:17Z</time>
      </trkpt>
      <trkpt lat="47.30461" lon="6.18889">
        <ele>381</ele>
        <time>2015-04-16T13:00:33Z</time>
      </trkpt>
      <trkpt lat="47.30454" lon="6.18888">
        <ele>381</ele>
        <time>2015-04-16T13:00:37Z</time>
      </trkpt>
      <trkpt lat="47.30447" lon="6.18898">
        <ele>382</ele>
        <time>2015-04-16T13:00:46Z</time>
      </trkpt>
      <trkpt lat="47.30441" lon="6.18898">
        <ele>382</ele>
        <time>2015-04-16T13:00:48Z</time>
      </trkpt>
      <trkpt lat="47.30427" lon="6.189">
        <ele>384</ele>
        <time>2015-04-16T13:00:59Z</time>
      </trkpt>
      <trkpt lat="47.30404" lon="6.18927">
        <ele>388</ele>
        <time>2015-04-16T13:01:25Z</time>
      </trkpt>
      <trkpt lat="47.30389" lon="6.18945">
        <ele>388</ele>
        <time>2015-04-16T13:01:40Z</time>
      </trkpt>
      <trkpt lat="47.30384" lon="6.18943">
        <ele>388</ele>
        <time>2015-04-16T13:01:43Z</time>
      </trkpt>
      <trkpt lat="47.30377" lon="6.18952">
        <ele>387</ele>
        <time>2015-04-16T13:01:50Z</time>
      </trkpt>
      <trkpt lat="47.30368" lon="6.1896">
        <ele>387</ele>
        <time>2015-04-16T13:01:57Z</time>
      </trkpt>
      <trkpt lat="47.30361" lon="6.18969">
        <ele>387</ele>
        <time>2015-04-16T13:02:05Z</time>
      </trkpt>
      <trkpt lat="47.30361" lon="6.18984">
        <ele>388</ele>
        <time>2015-04-16T13:02:12Z</time>
      </trkpt>
      <trkpt lat="47.30352" lon="6.18991">
        <ele>388</ele>
        <time>2015-04-16T13:02:20Z</time>
      </trkpt>
      <trkpt lat="47.30332" lon="6.18992">
        <ele>388</ele>
        <time>2015-04-16T13:02:31Z</time>
      </trkpt>
      <trkpt lat="47.30323" lon="6.18996">
        <ele>388</ele>
        <time>2015-04-16T13:02:37Z</time>
      </trkpt>
      <trkpt lat="47.30319" lon="6.19009">
        <ele>387</ele>
        <time>2015-04-16T13:02:45Z</time>
      </trkpt>
      <trkpt lat="47.30311" lon="6.19017">
        <ele>387</ele>
        <time>2015-04-16T13:02:54Z</time>
      </trkpt>
      <trkpt lat="47.30302" lon="6.19022">
        <ele>387</ele>
        <time>2015-04-16T13:03:02Z</time>
      </trkpt>
      <trkpt lat="47.30279" lon="6.19038">
        <ele>389</ele>
        <time>2015-04-16T13:03:19Z</time>
      </trkpt>
      <trkpt lat="47.3027" lon="6.19038">
        <ele>389</ele>
        <time>2015-04-16T13:03:23Z</time>
      </trkpt>
      <trkpt lat="47.30262" lon="6.19045">
        <ele>388</ele>
        <time>2015-04-16T13:03:30Z</time>
      </trkpt>
      <trkpt lat="47.30255" lon="6.19056">
        <ele>388</ele>
        <time>2015-04-16T13:03:38Z</time>
      </trkpt>
      <trkpt lat="47.30247" lon="6.19063">
        <ele>387</ele>
        <time>2015-04-16T13:03:44Z</time>
      </trkpt>
      <trkpt lat="47.30221" lon="6.19086">
        <ele>386</ele>
        <time>2015-04-16T13:04:07Z</time>
      </trkpt>
      <trkpt lat="47.30218" lon="6.191">
        <ele>386</ele>
        <time>2015-04-16T13:04:21Z</time>
      </trkpt>
      <trkpt lat="47.30209" lon="6.19103">
        <ele>387</ele>
        <time>2015-04-16T13:04:27Z</time>
      </trkpt>
      <trkpt lat="47.302" lon="6.19107">
        <ele>387</ele>
        <time>2015-04-16T13:04:35Z</time>
      </trkpt>
      <trkpt lat="47.30182" lon="6.19101">
        <ele>388</ele>
        <time>2015-04-16T13:04:50Z</time>
      </trkpt>
      <trkpt lat="47.30183" lon="6.19109">
        <ele>388</ele>
        <time>2015-04-16T13:04:59Z</time>
      </trkpt>
      <trkpt lat="47.30185" lon="6.19165">
        <ele>389</ele>
        <time>2015-04-16T13:05:23Z</time>
      </trkpt>
      <trkpt lat="47.30178" lon="6.19175">
        <ele>390</ele>
        <time>2015-04-16T13:05:37Z</time>
      </trkpt>
      <trkpt lat="47.3018" lon="6.19189">
        <ele>390</ele>
        <time>2015-04-16T13:05:52Z</time>
      </trkpt>
      <trkpt lat="47.30175" lon="6.19203">
        <ele>390</ele>
        <time>2015-04-16T13:06:03Z</time>
      </trkpt>
      <trkpt lat="47.30173" lon="6.19216">
        <ele>391</ele>
        <time>2015-04-16T13:06:12Z</time>
      </trkpt>
      <trkpt lat="47.30175" lon="6.1923">
        <ele>391</ele>
        <time>2015-04-16T13:06:21Z</time>
      </trkpt>
      <trkpt lat="47.30173" lon="6.19272">
        <ele>395</ele>
        <time>2015-04-16T13:07:03Z</time>
      </trkpt>
      <trkpt lat="47.30185" lon="6.1931">
        <ele>400</ele>
        <time>2015-04-16T13:07:34Z</time>
      </trkpt>
      <trkpt lat="47.30199" lon="6.19362">
        <ele>405</ele>
        <time>2015-04-16T13:08:15Z</time>
      </trkpt>
      <trkpt lat="47.30201" lon="6.19376">
        <ele>406</ele>
        <time>2015-04-16T13:08:29Z</time>
      </trkpt>
      <trkpt lat="47.30202" lon="6.19391">
        <ele>406</ele>
        <time>2015-04-16T13:08:37Z</time>
      </trkpt>
      <trkpt lat="47.30192" lon="6.19399">
        <ele>407</ele>
        <time>2015-04-16T13:08:45Z</time>
      </trkpt>
      <trkpt lat="47.3019" lon="6.19406">
        <ele>407</ele>
        <time>2015-04-16T13:08:48Z</time>
      </trkpt>
      <trkpt lat="47.3019" lon="6.19427">
        <ele>406</ele>
        <time>2015-04-16T13:08:52Z</time>
      </trkpt>
      <trkpt lat="47.30181" lon="6.19434">
        <ele>406</ele>
        <time>2015-04-16T13:09:07Z</time>
      </trkpt>
      <trkpt lat="47.30181" lon="6.19447">
        <ele>407</ele>
        <time>2015-04-16T13:09:17Z</time>
      </trkpt>
      <trkpt lat="47.3018" lon="6.19461">
        <ele>407</ele>
        <time>2015-04-16T13:09:22Z</time>
      </trkpt>
      <trkpt lat="47.30184" lon="6.19474">
        <ele>406</ele>
        <time>2015-04-16T13:09:32Z</time>
      </trkpt>
      <trkpt lat="47.30182" lon="6.19482">
        <ele>411</ele>
        <time>2015-04-16T13:11:19Z</time>
      </trkpt>
      <trkpt lat="47.3018" lon="6.1947">
        <ele>418</ele>
        <time>2015-04-16T13:13:23Z</time>
      </trkpt>
      <trkpt lat="47.30173" lon="6.19461">
        <ele>418</ele>
        <time>2015-04-16T13:13:31Z</time>
      </trkpt>
      <trkpt lat="47.30164" lon="6.19455">
        <ele>418</ele>
        <time>2015-04-16T13:13:41Z</time>
      </trkpt>
      <trkpt lat="47.30156" lon="6.19447">
        <ele>418</ele>
        <time>2015-04-16T13:13:48Z</time>
      </trkpt>
      <trkpt lat="47.30147" lon="6.19443">
        <ele>418</ele>
        <time>2015-04-16T13:13:56Z</time>
      </trkpt>
      <trkpt lat="47.30138" lon="6.19437">
        <ele>417</ele>
        <time>2015-04-16T13:14:02Z</time>
      </trkpt>
      <trkpt lat="47.301" lon="6.19421">
        <ele>416</ele>
        <time>2015-04-16T13:14:34Z</time>
      </trkpt>
      <trkpt lat="47.30091" lon="6.19416">
        <ele>416</ele>
        <time>2015-04-16T13:14:44Z</time>
      </trkpt>
      <trkpt lat="47.30055" lon="6.19403">
        <ele>407</ele>
        <time>2015-04-16T13:15:21Z</time>
      </trkpt>
      <trkpt lat="47.30045" lon="6.19397">
        <ele>405</ele>
        <time>2015-04-16T13:15:27Z</time>
      </trkpt>
      <trkpt lat="47.30037" lon="6.19397">
        <ele>405</ele>
        <time>2015-04-16T13:15:31Z</time>
      </trkpt>
      <trkpt lat="47.30024" lon="6.194">
        <ele>403</ele>
        <time>2015-04-16T13:15:38Z</time>
      </trkpt>
      <trkpt lat="47.30005" lon="6.19393">
        <ele>401</ele>
        <time>2015-04-16T13:15:52Z</time>
      </trkpt>
      <trkpt lat="47.2999" lon="6.19379">
        <ele>396</ele>
        <time>2015-04-16T13:16:13Z</time>
      </trkpt>
      <trkpt lat="47.29983" lon="6.19369">
        <ele>396</ele>
        <time>2015-04-16T13:16:21Z</time>
      </trkpt>
      <trkpt lat="47.29948" lon="6.1935">
        <ele>393</ele>
        <time>2015-04-16T13:16:54Z</time>
      </trkpt>
      <trkpt lat="47.29916" lon="6.19319">
        <ele>390</ele>
        <time>2015-04-16T13:17:26Z</time>
      </trkpt>
      <trkpt lat="47.29885" lon="6.19287">
        <ele>386</ele>
        <time>2015-04-16T13:17:55Z</time>
      </trkpt>
      <trkpt lat="47.29879" lon="6.19277">
        <ele>386</ele>
        <time>2015-04-16T13:18:04Z</time>
      </trkpt>
      <trkpt lat="47.29857" lon="6.19254">
        <ele>382</ele>
        <time>2015-04-16T13:18:34Z</time>
      </trkpt>
      <trkpt lat="47.29849" lon="6.19246">
        <ele>381</ele>
        <time>2015-04-16T13:18:41Z</time>
      </trkpt>
      <trkpt lat="47.29839" lon="6.19242">
        <ele>379</ele>
        <time>2015-04-16T13:18:49Z</time>
      </trkpt>
      <trkpt lat="47.29815" lon="6.19218">
        <ele>377</ele>
        <time>2015-04-16T13:19:11Z</time>
      </trkpt>
      <trkpt lat="47.29807" lon="6.19211">
        <ele>375</ele>
        <time>2015-04-16T13:19:19Z</time>
      </trkpt>
      <trkpt lat="47.29776" lon="6.1916">
        <ele>369</ele>
        <time>2015-04-16T13:19:57Z</time>
      </trkpt>
      <trkpt lat="47.29766" lon="6.19157">
        <ele>368</ele>
        <time>2015-04-16T13:20:05Z</time>
      </trkpt>
      <trkpt lat="47.29759" lon="6.19147">
        <ele>367</ele>
        <time>2015-04-16T13:20:12Z</time>
      </trkpt>
      <trkpt lat="47.2975" lon="6.1914">
        <ele>365</ele>
        <time>2015-04-16T13:20:23Z</time>
      </trkpt>
      <trkpt lat="47.29712" lon="6.19138">
        <ele>360</ele>
        <time>2015-04-16T13:20:45Z</time>
      </trkpt>
      <trkpt lat="47.29704" lon="6.19144">
        <ele>359</ele>
        <time>2015-04-16T13:20:55Z</time>
      </trkpt>
      <trkpt lat="47.29695" lon="6.19144">
        <ele>356</ele>
        <time>2015-04-16T13:21:03Z</time>
      </trkpt>
      <trkpt lat="47.29686" lon="6.19141">
        <ele>356</ele>
        <time>2015-04-16T13:21:09Z</time>
      </trkpt>
      <trkpt lat="47.29678" lon="6.19133">
        <ele>353</ele>
        <time>2015-04-16T13:21:17Z</time>
      </trkpt>
      <trkpt lat="47.29671" lon="6.19124">
        <ele>353</ele>
        <time>2015-04-16T13:21:25Z</time>
      </trkpt>
      <trkpt lat="47.29663" lon="6.19132">
        <ele>350</ele>
        <time>2015-04-16T13:21:35Z</time>
      </trkpt>
      <trkpt lat="47.29664" lon="6.19146">
        <ele>349</ele>
        <time>2015-04-16T13:21:41Z</time>
      </trkpt>
      <trkpt lat="47.29663" lon="6.19161">
        <ele>348</ele>
        <time>2015-04-16T13:21:48Z</time>
      </trkpt>
      <trkpt lat="47.29661" lon="6.19191">
        <ele>347</ele>
        <time>2015-04-16T13:22:02Z</time>
      </trkpt>
      <trkpt lat="47.29663" lon="6.19262">
        <ele>340</ele>
        <time>2015-04-16T13:22:39Z</time>
      </trkpt>
      <trkpt lat="47.29671" lon="6.1932">
        <ele>336</ele>
        <time>2015-04-16T13:23:09Z</time>
      </trkpt>
      <trkpt lat="47.29682" lon="6.19395">
        <ele>333</ele>
        <time>2015-04-16T13:23:47Z</time>
      </trkpt>
      <trkpt lat="47.2969" lon="6.1945">
        <ele>330</ele>
        <time>2015-04-16T13:24:18Z</time>
      </trkpt>
      <trkpt lat="47.2969" lon="6.19465">
        <ele>329</ele>
        <time>2015-04-16T13:24:24Z</time>
      </trkpt>
      <trkpt lat="47.29682" lon="6.1946">
        <ele>328</ele>
        <time>2015-04-16T13:24:36Z</time>
      </trkpt>
      <trkpt lat="47.29674" lon="6.1945">
        <ele>328</ele>
        <time>2015-04-16T13:24:43Z</time>
      </trkpt>
      <trkpt lat="47.29635" lon="6.19415">
        <ele>320</ele>
        <time>2015-04-16T13:25:15Z</time>
      </trkpt>
      <trkpt lat="47.29613" lon="6.19389">
        <ele>317</ele>
        <time>2015-04-16T13:25:38Z</time>
      </trkpt>
      <trkpt lat="47.29604" lon="6.19393">
        <ele>315</ele>
        <time>2015-04-16T13:25:46Z</time>
      </trkpt>
      <trkpt lat="47.29601" lon="6.19406">
        <ele>313</ele>
        <time>2015-04-16T13:25:53Z</time>
      </trkpt>
      <trkpt lat="47.29597" lon="6.1941">
        <ele>310</ele>
        <time>2015-04-16T13:27:10Z</time>
      </trkpt>
    </trkseg>
  </trk>
</gpx>